Check out our new PWSWeather beta!
PWSweather.com
Personal Weather Stations
Station Observations
BMGB5962
BerguesFR 59380

BerguesFR 59380

Lat: 50.968, Lon: 2.440469

Elevation: 56

Station Type: Vantage Pro 2 Plus

Latest ConditionsUpdated 7:47:00 PM GMT+01:01 Monday, Feb 24, 2020
Currently Today's Max Today's Min Today's Average
Temperature 49.9°F9.9°C 52.7°F11.5°C 49.3°F9.6°C 50.6°F10.3°C
Dew Point 48.2°F9.0°C 50.1°F10.1°C 47.6°F8.7°C 48.4°F9.1°C
Winds 11.0 mph W17.7 kmh W 23.0 mph -37.0 kmh - - 14.7 mph 23.7 kmh
Wind Gusts 19.0 mph30.6 kmh 43.0 mph69.2 kmh - -
Humidity 94% 96% 86% 92%
Pressure 29.70 in1005.8 mb 29.91 in1012.9 mb 29.69 in1005.4 mb -
Precipitation - 0.04 in1.0 mm - -
Hour Temp Dew Point Humidity Winds Wind Gusts Pressure Precip Precip Rate Daily Precip Total
07:47 PM 49.9°F9.9°C 48.2°F9.0°C 94% 11.0 mph W17.7 kmh W 19.0 mph30.6 kmh 29.70 in1005.8 mb 0.00 in0.0 mm 0.00 in0.0 mm 0.04 in1.0 mm
07:46 PM 49.9°F9.9°C 48.2°F9.0°C 94% 14.0 mph SW22.5 kmh SW 23.0 mph37.0 kmh 29.70 in1005.8 mb 0.00 in0.0 mm 0.00 in0.0 mm 0.04 in1.0 mm
07:45 PM 49.9°F9.9°C 48.2°F9.0°C 94% 17.0 mph WSW27.4 kmh WSW 24.0 mph38.6 kmh 29.70 in1005.8 mb 0.00 in0.0 mm 0.00 in0.0 mm 0.04 in1.0 mm
07:44 PM 49.9°F9.9°C 48.2°F9.0°C 94% 12.0 mph SW19.3 kmh SW 22.0 mph35.4 kmh 29.70 in1005.8 mb 0.00 in0.0 mm 0.00 in0.0 mm 0.04 in1.0 mm
07:43 PM 49.9°F9.9°C 48.2°F9.0°C 94% 12.0 mph W19.3 kmh W 20.0 mph32.2 kmh 29.70 in1005.8 mb 0.00 in0.0 mm 0.00 in0.0 mm 0.04 in1.0 mm
07:42 PM 49.9°F9.9°C 48.2°F9.0°C 94% 11.0 mph W17.7 kmh W 21.0 mph33.8 kmh 29.70 in1005.8 mb 0.00 in0.0 mm 0.00 in0.0 mm 0.04 in1.0 mm
07:41 PM 49.8°F9.9°C 48.1°F8.9°C 94% 15.0 mph WSW24.1 kmh WSW 27.0 mph43.5 kmh 29.70 in1005.8 mb 0.00 in0.0 mm 0.00 in0.0 mm 0.04 in1.0 mm
07:40 PM 49.8°F9.9°C 48.1°F8.9°C 94% 14.0 mph WSW22.5 kmh WSW 21.0 mph33.8 kmh 29.70 in1005.8 mb 0.00 in0.0 mm 0.00 in0.0 mm 0.04 in1.0 mm
07:39 PM 49.8°F9.9°C 48.1°F8.9°C 94% 14.0 mph WSW22.5 kmh WSW 24.0 mph38.6 kmh 29.70 in1005.8 mb 0.00 in0.0 mm 0.00 in0.0 mm 0.04 in1.0 mm
07:38 PM 49.8°F9.9°C 48.1°F8.9°C 94% 16.0 mph WSW25.7 kmh WSW 23.0 mph37.0 kmh 29.70 in1005.8 mb 0.00 in0.0 mm 0.00 in0.0 mm 0.04 in1.0 mm
07:37 PM 49.8°F9.9°C 48.1°F8.9°C 94% 15.0 mph SW24.1 kmh SW 23.0 mph37.0 kmh 29.70 in1005.8 mb 0.00 in0.0 mm 0.00 in0.0 mm 0.13 in3.3 mm
07:36 PM 49.8°F9.9°C 48.1°F8.9°C 94% 16.0 mph WSW25.7 kmh WSW 22.0 mph35.4 kmh 29.70 in1005.8 mb 0.00 in0.0 mm 0.00 in0.0 mm 0.04 in1.0 mm
07:35 PM 49.8°F9.9°C 48.1°F8.9°C 94% 15.0 mph WSW24.1 kmh WSW 21.0 mph33.8 kmh 29.70 in1005.8 mb 0.00 in0.0 mm 0.00 in0.0 mm 0.04 in1.0 mm
07:34 PM 49.8°F9.9°C 48.1°F8.9°C 94% 17.0 mph SW27.4 kmh SW 23.0 mph37.0 kmh 29.70 in1005.8 mb 0.00 in0.0 mm 0.00 in0.0 mm 0.13 in3.3 mm
07:33 PM 49.8°F9.9°C 48.1°F8.9°C 94% 13.0 mph WSW20.9 kmh WSW 21.0 mph33.8 kmh 29.70 in1005.8 mb 0.00 in0.0 mm 0.00 in0.0 mm 0.04 in1.0 mm
07:32 PM 49.8°F9.9°C 48.1°F8.9°C 94% 11.0 mph WSW17.7 kmh WSW 21.0 mph33.8 kmh 29.70 in1005.8 mb 0.00 in0.0 mm 0.00 in0.0 mm 0.04 in1.0 mm
07:31 PM 49.8°F9.9°C 48.1°F8.9°C 94% 15.0 mph WSW24.1 kmh WSW 24.0 mph38.6 kmh 29.70 in1005.8 mb 0.00 in0.0 mm 0.00 in0.0 mm 0.04 in1.0 mm
07:30 PM 49.8°F9.9°C 48.1°F8.9°C 94% 18.0 mph WSW29.0 kmh WSW 29.0 mph46.7 kmh 29.71 in1006.1 mb 0.00 in0.0 mm 0.00 in0.0 mm 0.04 in1.0 mm
07:29 PM 49.8°F9.9°C 48.1°F8.9°C 94% 13.0 mph WSW20.9 kmh WSW 22.0 mph35.4 kmh 29.71 in1006.1 mb 0.00 in0.0 mm 0.00 in0.0 mm 0.04 in1.0 mm
07:28 PM 49.8°F9.9°C 48.1°F8.9°C 94% 15.0 mph WSW24.1 kmh WSW 21.0 mph33.8 kmh 29.71 in1006.1 mb 0.00 in0.0 mm 0.00 in0.0 mm 0.04 in1.0 mm
07:27 PM 49.8°F9.9°C 48.1°F8.9°C 94% 17.0 mph SW27.4 kmh SW 29.0 mph46.7 kmh 29.71 in1006.1 mb 0.00 in0.0 mm 0.00 in0.0 mm 0.04 in1.0 mm
07:26 PM 49.8°F9.9°C 48.1°F8.9°C 94% 14.0 mph WSW22.5 kmh WSW 26.0 mph41.8 kmh 29.70 in1005.8 mb 0.00 in0.0 mm 0.00 in0.0 mm 0.04 in1.0 mm
07:25 PM 49.7°F9.8°C 48.0°F8.9°C 94% 12.0 mph W19.3 kmh W 19.0 mph30.6 kmh 29.71 in1006.1 mb 0.00 in0.0 mm 0.00 in0.0 mm 0.04 in1.0 mm
07:24 PM 49.7°F9.8°C 48.0°F8.9°C 94% 13.0 mph WSW20.9 kmh WSW 23.0 mph37.0 kmh 29.71 in1006.1 mb 0.00 in0.0 mm 0.00 in0.0 mm 0.04 in1.0 mm
07:23 PM 49.7°F9.8°C 48.0°F8.9°C 94% 11.0 mph W17.7 kmh W 24.0 mph38.6 kmh 29.70 in1005.8 mb 0.00 in0.0 mm 0.00 in0.0 mm 0.04 in1.0 mm
07:22 PM 49.7°F9.8°C 48.0°F8.9°C 94% 14.0 mph SW22.5 kmh SW 25.0 mph40.2 kmh 29.70 in1005.8 mb 0.00 in0.0 mm 0.00 in0.0 mm 0.13 in3.3 mm
07:21 PM 49.7°F9.8°C 48.0°F8.9°C 94% 15.0 mph SW24.1 kmh SW 21.0 mph33.8 kmh 29.71 in1006.1 mb 0.00 in0.0 mm 0.00 in0.0 mm 0.04 in1.0 mm
07:20 PM 49.7°F9.8°C 48.0°F8.9°C 94% 14.0 mph WSW22.5 kmh WSW 28.0 mph45.1 kmh 29.70 in1005.8 mb 0.00 in0.0 mm 0.00 in0.0 mm 0.04 in1.0 mm
07:19 PM 49.7°F9.8°C 48.0°F8.9°C 94% 19.0 mph WSW30.6 kmh WSW 29.0 mph46.7 kmh 29.71 in1006.1 mb 0.00 in0.0 mm 0.00 in0.0 mm 0.04 in1.0 mm
07:18 PM 49.7°F9.8°C 48.0°F8.9°C 94% 13.0 mph W20.9 kmh W 25.0 mph40.2 kmh 29.71 in1006.1 mb 0.00 in0.0 mm 0.00 in0.0 mm 0.04 in1.0 mm
07:17 PM 49.7°F9.8°C 48.0°F8.9°C 94% 16.0 mph WSW25.7 kmh WSW 25.0 mph40.2 kmh 29.70 in1005.8 mb 0.00 in0.0 mm 0.00 in0.0 mm 0.04 in1.0 mm
07:16 PM 49.7°F9.8°C 48.0°F8.9°C 94% 13.0 mph WSW20.9 kmh WSW 23.0 mph37.0 kmh 29.70 in1005.8 mb 0.00 in0.0 mm 0.00 in0.0 mm 0.04 in1.0 mm
07:15 PM 49.7°F9.8°C 48.0°F8.9°C 94% 14.0 mph WSW22.5 kmh WSW 20.0 mph32.2 kmh 29.70 in1005.8 mb 0.00 in0.0 mm 0.00 in0.0 mm 0.04 in1.0 mm
07:14 PM 49.7°F9.8°C 48.0°F8.9°C 94% 11.0 mph W17.7 kmh W 17.0 mph27.4 kmh 29.71 in1006.1 mb 0.00 in0.0 mm 0.00 in0.0 mm 0.04 in1.0 mm
07:13 PM 49.7°F9.8°C 48.0°F8.9°C 94% 14.0 mph WSW22.5 kmh WSW 21.0 mph33.8 kmh 29.71 in1006.1 mb 0.00 in0.0 mm 0.00 in0.0 mm 0.04 in1.0 mm
07:12 PM 49.7°F9.8°C 48.0°F8.9°C 94% 14.0 mph SW22.5 kmh SW 27.0 mph43.5 kmh 29.70 in1005.8 mb 0.00 in0.0 mm 0.00 in0.0 mm 0.13 in3.3 mm
07:11 PM 49.7°F9.8°C 48.0°F8.9°C 94% 11.0 mph SW17.7 kmh SW 23.0 mph37.0 kmh 29.70 in1005.8 mb 0.00 in0.0 mm 0.00 in0.0 mm 0.13 in3.3 mm
07:10 PM 49.7°F9.8°C 48.0°F8.9°C 94% 15.0 mph SW24.1 kmh SW 24.0 mph38.6 kmh 29.70 in1005.8 mb 0.00 in0.0 mm 0.00 in0.0 mm 0.13 in3.3 mm
07:09 PM 49.7°F9.8°C 48.0°F8.9°C 94% 14.0 mph WSW22.5 kmh WSW 23.0 mph37.0 kmh 29.70 in1005.8 mb 0.00 in0.0 mm 0.00 in0.0 mm 0.04 in1.0 mm
07:08 PM 49.7°F9.8°C 48.0°F8.9°C 94% 13.0 mph WSW20.9 kmh WSW 20.0 mph32.2 kmh 29.70 in1005.8 mb 0.00 in0.0 mm 0.00 in0.0 mm 0.04 in1.0 mm
07:07 PM 49.7°F9.8°C 48.0°F8.9°C 94% 18.0 mph SW29.0 kmh SW 26.0 mph41.8 kmh 29.71 in1006.1 mb 0.00 in0.0 mm 0.00 in0.0 mm 0.13 in3.3 mm
07:06 PM 49.7°F9.8°C 48.0°F8.9°C 94% 15.0 mph WSW24.1 kmh WSW 23.0 mph37.0 kmh 29.71 in1006.1 mb 0.00 in0.0 mm 0.00 in0.0 mm 0.13 in3.3 mm
07:05 PM 49.7°F9.8°C 48.0°F8.9°C 94% 12.0 mph SW19.3 kmh SW 19.0 mph30.6 kmh 29.71 in1006.1 mb 0.00 in0.0 mm 0.00 in0.0 mm 0.13 in3.3 mm
07:04 PM 49.7°F9.8°C 48.0°F8.9°C 94% 14.0 mph SW22.5 kmh SW 23.0 mph37.0 kmh 29.72 in1006.4 mb 0.00 in0.0 mm 0.00 in0.0 mm 0.13 in3.3 mm
07:03 PM 49.7°F9.8°C 48.0°F8.9°C 94% 15.0 mph W24.1 kmh W 25.0 mph40.2 kmh 29.71 in1006.1 mb 0.00 in0.0 mm 0.00 in0.0 mm 0.13 in3.3 mm
07:02 PM 49.7°F9.8°C 48.0°F8.9°C 94% 13.0 mph WSW20.9 kmh WSW 19.0 mph30.6 kmh 29.71 in1006.1 mb 0.00 in0.0 mm 0.00 in0.0 mm 0.13 in3.3 mm
07:01 PM 49.7°F9.8°C 48.0°F8.9°C 94% 14.0 mph WSW22.5 kmh WSW 23.0 mph37.0 kmh 29.71 in1006.1 mb 0.00 in0.0 mm 0.00 in0.0 mm 0.04 in1.0 mm
07:00 PM 49.7°F9.8°C 48.0°F8.9°C 94% 13.0 mph SW20.9 kmh SW 22.0 mph35.4 kmh 29.71 in1006.1 mb 0.00 in0.0 mm 0.00 in0.0 mm 0.04 in1.0 mm
06:59 PM 49.7°F9.8°C 48.0°F8.9°C 94% 14.0 mph WSW22.5 kmh WSW 27.0 mph43.5 kmh 29.72 in1006.4 mb 0.00 in0.0 mm 0.00 in0.0 mm 0.13 in3.3 mm
06:58 PM 49.7°F9.8°C 48.0°F8.9°C 94% 14.0 mph WSW22.5 kmh WSW 22.0 mph35.4 kmh 29.72 in1006.4 mb 0.00 in0.0 mm 0.00 in0.0 mm 0.13 in3.3 mm
06:57 PM 49.7°F9.8°C 48.0°F8.9°C 94% 14.0 mph WSW22.5 kmh WSW 23.0 mph37.0 kmh 29.72 in1006.4 mb 0.00 in0.0 mm 0.00 in0.0 mm 0.13 in3.3 mm
06:56 PM 49.7°F9.8°C 47.8°F8.8°C 93% 9.0 mph W14.5 kmh W 13.0 mph20.9 kmh 29.72 in1006.4 mb 0.00 in0.0 mm 0.00 in0.0 mm 0.13 in3.3 mm
06:55 PM 49.7°F9.8°C 47.8°F8.8°C 93% 9.0 mph W14.5 kmh W 16.0 mph25.7 kmh 29.72 in1006.4 mb 0.00 in0.0 mm 0.00 in0.0 mm 0.04 in1.0 mm
06:54 PM 49.7°F9.8°C 47.8°F8.8°C 93% 12.0 mph SW19.3 kmh SW 22.0 mph35.4 kmh 29.72 in1006.4 mb 0.00 in0.0 mm 0.00 in0.0 mm 0.04 in1.0 mm
06:53 PM 49.7°F9.8°C 47.8°F8.8°C 93% 16.0 mph WSW25.7 kmh WSW 25.0 mph40.2 kmh 29.72 in1006.4 mb 0.00 in0.0 mm 0.00 in0.0 mm 0.04 in1.0 mm
06:52 PM 49.7°F9.8°C 47.8°F8.8°C 93% 12.0 mph WSW19.3 kmh WSW 21.0 mph33.8 kmh 29.72 in1006.4 mb 0.00 in0.0 mm 0.00 in0.0 mm 0.04 in1.0 mm
06:51 PM 49.7°F9.8°C 47.8°F8.8°C 93% 14.0 mph WSW22.5 kmh WSW 21.0 mph33.8 kmh 29.72 in1006.4 mb 0.00 in0.0 mm 0.00 in0.0 mm 0.04 in1.0 mm
06:50 PM 49.7°F9.8°C 47.8°F8.8°C 93% 15.0 mph W24.1 kmh W 25.0 mph40.2 kmh 29.72 in1006.4 mb 0.00 in0.0 mm 0.00 in0.0 mm 0.04 in1.0 mm
06:49 PM 49.7°F9.8°C 47.8°F8.8°C 93% 17.0 mph WSW27.4 kmh WSW 24.0 mph38.6 kmh 29.71 in1006.1 mb 0.00 in0.0 mm 0.00 in0.0 mm 0.04 in1.0 mm
06:48 PM 49.7°F9.8°C 47.8°F8.8°C 93% 11.0 mph W17.7 kmh W 17.0 mph27.4 kmh 29.71 in1006.1 mb 0.00 in0.0 mm 0.00 in0.0 mm 0.04 in1.0 mm
06:47 PM 49.8°F9.9°C 47.9°F8.8°C 93% 15.0 mph WSW24.1 kmh WSW 23.0 mph37.0 kmh 29.71 in1006.1 mb 0.00 in0.0 mm 0.00 in0.0 mm 0.04 in1.0 mm
06:46 PM 49.7°F9.8°C 47.8°F8.8°C 93% 16.0 mph WSW25.7 kmh WSW 23.0 mph37.0 kmh 29.71 in1006.1 mb 0.00 in0.0 mm 0.00 in0.0 mm 0.04 in1.0 mm
06:45 PM 49.7°F9.8°C 47.8°F8.8°C 93% 15.0 mph WSW24.1 kmh WSW 31.0 mph49.9 kmh 29.71 in1006.1 mb 0.00 in0.0 mm 0.00 in0.0 mm 0.04 in1.0 mm
06:44 PM 49.7°F9.8°C 47.8°F8.8°C 93% 20.0 mph WSW32.2 kmh WSW 30.0 mph48.3 kmh 29.71 in1006.1 mb 0.00 in0.0 mm 0.00 in0.0 mm 0.13 in3.3 mm
06:43 PM 49.7°F9.8°C 47.8°F8.8°C 93% 16.0 mph WSW25.7 kmh WSW 26.0 mph41.8 kmh 29.71 in1006.1 mb 0.00 in0.0 mm 0.00 in0.0 mm 0.04 in1.0 mm
06:42 PM 49.7°F9.8°C 47.8°F8.8°C 93% 16.0 mph WSW25.7 kmh WSW 23.0 mph37.0 kmh 29.71 in1006.1 mb 0.00 in0.0 mm 0.00 in0.0 mm 0.04 in1.0 mm
06:41 PM 49.7°F9.8°C 47.8°F8.8°C 93% 13.0 mph WSW20.9 kmh WSW 17.0 mph27.4 kmh 29.71 in1006.1 mb 0.00 in0.0 mm 0.00 in0.0 mm 0.04 in1.0 mm
06:40 PM 49.7°F9.8°C 47.8°F8.8°C 93% 16.0 mph WSW25.7 kmh WSW 26.0 mph41.8 kmh 29.70 in1005.8 mb 0.00 in0.0 mm 0.00 in0.0 mm 0.04 in1.0 mm
06:39 PM 49.7°F9.8°C 47.8°F8.8°C 93% 17.0 mph W27.4 kmh W 32.0 mph51.5 kmh 29.71 in1006.1 mb 0.00 in0.0 mm 0.00 in0.0 mm 0.04 in1.0 mm
06:38 PM 49.7°F9.8°C 47.8°F8.8°C 93% 17.0 mph SW27.4 kmh SW 24.0 mph38.6 kmh 29.71 in1006.1 mb 0.00 in0.0 mm 0.00 in0.0 mm 0.04 in1.0 mm
06:37 PM 49.6°F9.8°C 47.7°F8.7°C 93% 16.0 mph SW25.7 kmh SW 22.0 mph35.4 kmh 29.71 in1006.1 mb 0.00 in0.0 mm 0.00 in0.0 mm 0.04 in1.0 mm
06:36 PM 49.6°F9.8°C 47.7°F8.7°C 93% 17.0 mph SW27.4 kmh SW 26.0 mph41.8 kmh 29.71 in1006.1 mb 0.00 in0.0 mm 0.00 in0.0 mm 0.04 in1.0 mm
06:35 PM 49.6°F9.8°C 47.7°F8.7°C 93% 15.0 mph WSW24.1 kmh WSW 21.0 mph33.8 kmh 29.71 in1006.1 mb 0.00 in0.0 mm 0.00 in0.0 mm 0.04 in1.0 mm
06:34 PM 49.6°F9.8°C 47.7°F8.7°C 93% 13.0 mph WSW20.9 kmh WSW 26.0 mph41.8 kmh 29.71 in1006.1 mb 0.00 in0.0 mm 0.00 in0.0 mm 0.04 in1.0 mm
06:33 PM 49.6°F9.8°C 47.7°F8.7°C 93% 16.0 mph WSW25.7 kmh WSW 24.0 mph38.6 kmh 29.71 in1006.1 mb 0.00 in0.0 mm 0.00 in0.0 mm 0.04 in1.0 mm
06:32 PM 49.6°F9.8°C 47.7°F8.7°C 93% 12.0 mph SW19.3 kmh SW 19.0 mph30.6 kmh 29.71 in1006.1 mb 0.00 in0.0 mm 0.00 in0.0 mm 0.04 in1.0 mm
06:31 PM 49.6°F9.8°C 47.7°F8.7°C 93% 10.0 mph WSW16.1 kmh WSW 14.0 mph22.5 kmh 29.71 in1006.1 mb 0.00 in0.0 mm 0.00 in0.0 mm 0.04 in1.0 mm
06:30 PM 49.7°F9.8°C 47.8°F8.8°C 93% 14.0 mph WSW22.5 kmh WSW 24.0 mph38.6 kmh 29.72 in1006.4 mb 0.00 in0.0 mm 0.00 in0.0 mm 0.04 in1.0 mm
06:29 PM 49.6°F9.8°C 47.7°F8.7°C 93% 18.0 mph WSW29.0 kmh WSW 28.0 mph45.1 kmh 29.71 in1006.1 mb 0.00 in0.0 mm 0.00 in0.0 mm 0.04 in1.0 mm
06:28 PM 49.6°F9.8°C 47.7°F8.7°C 93% 11.0 mph W17.7 kmh W 15.0 mph24.1 kmh 29.71 in1006.1 mb 0.00 in0.0 mm 0.00 in0.0 mm 0.04 in1.0 mm
06:27 PM 49.7°F9.8°C 47.8°F8.8°C 93% 14.0 mph WSW22.5 kmh WSW 22.0 mph35.4 kmh 29.71 in1006.1 mb 0.00 in0.0 mm 0.00 in0.0 mm 0.04 in1.0 mm
06:26 PM 49.6°F9.8°C 47.7°F8.7°C 93% 14.0 mph SW22.5 kmh SW 26.0 mph41.8 kmh 29.71 in1006.1 mb 0.00 in0.0 mm 0.00 in0.0 mm 0.04 in1.0 mm
06:25 PM 49.6°F9.8°C 47.7°F8.7°C 93% 12.0 mph WSW19.3 kmh WSW 20.0 mph32.2 kmh 29.71 in1006.1 mb 0.00 in0.0 mm 0.00 in0.0 mm 0.04 in1.0 mm
06:24 PM 49.6°F9.8°C 47.7°F8.7°C 93% 16.0 mph SW25.7 kmh SW 28.0 mph45.1 kmh 29.72 in1006.4 mb 0.00 in0.0 mm 0.00 in0.0 mm 0.04 in1.0 mm
06:23 PM 49.6°F9.8°C 47.7°F8.7°C 93% 14.0 mph WSW22.5 kmh WSW 25.0 mph40.2 kmh 29.72 in1006.4 mb 0.00 in0.0 mm 0.00 in0.0 mm 0.04 in1.0 mm
06:22 PM 49.7°F9.8°C 47.8°F8.8°C 93% 16.0 mph WSW25.7 kmh WSW 22.0 mph35.4 kmh 29.71 in1006.1 mb 0.00 in0.0 mm 0.00 in0.0 mm 0.04 in1.0 mm
06:21 PM 49.6°F9.8°C 47.7°F8.7°C 93% 16.0 mph WSW25.7 kmh WSW 23.0 mph37.0 kmh 29.71 in1006.1 mb 0.00 in0.0 mm 0.00 in0.0 mm 0.04 in1.0 mm
06:20 PM 49.6°F9.8°C 47.7°F8.7°C 93% 14.0 mph W22.5 kmh W 21.0 mph33.8 kmh 29.71 in1006.1 mb 0.01 in0.3 mm 0.00 in0.0 mm 0.04 in1.0 mm
06:19 PM 49.6°F9.8°C 47.7°F8.7°C 93% 15.0 mph SW24.1 kmh SW 28.0 mph45.1 kmh 29.71 in1006.1 mb 0.01 in0.3 mm 0.00 in0.0 mm 0.04 in1.0 mm
06:18 PM 49.6°F9.8°C 47.7°F8.7°C 93% 14.0 mph SW22.5 kmh SW 20.0 mph32.2 kmh 29.71 in1006.1 mb 0.01 in0.3 mm 0.00 in0.0 mm 0.04 in1.0 mm
06:17 PM 49.6°F9.8°C 47.7°F8.7°C 93% 18.0 mph WSW29.0 kmh WSW 29.0 mph46.7 kmh 29.72 in1006.4 mb 0.01 in0.3 mm 0.00 in0.0 mm 0.04 in1.0 mm
06:16 PM 49.6°F9.8°C 47.7°F8.7°C 93% 14.0 mph WSW22.5 kmh WSW 25.0 mph40.2 kmh 29.72 in1006.4 mb 0.01 in0.3 mm 0.00 in0.0 mm 0.04 in1.0 mm
06:15 PM 49.6°F9.8°C 47.7°F8.7°C 93% 13.0 mph WSW20.9 kmh WSW 21.0 mph33.8 kmh 29.71 in1006.1 mb 0.01 in0.3 mm 0.00 in0.0 mm 0.04 in1.0 mm
06:14 PM 49.7°F9.8°C 47.8°F8.8°C 93% 16.0 mph WSW25.7 kmh WSW 25.0 mph40.2 kmh 29.71 in1006.1 mb 0.01 in0.3 mm 0.00 in0.0 mm 0.04 in1.0 mm
06:13 PM 49.7°F9.8°C 47.8°F8.8°C 93% 14.0 mph WSW22.5 kmh WSW 20.0 mph32.2 kmh 29.72 in1006.4 mb 0.01 in0.3 mm 0.00 in0.0 mm 0.04 in1.0 mm
06:12 PM 49.6°F9.8°C 47.7°F8.7°C 93% 14.0 mph WSW22.5 kmh WSW 24.0 mph38.6 kmh 29.71 in1006.1 mb 0.01 in0.3 mm 0.00 in0.0 mm 0.13 in3.3 mm
06:11 PM 49.7°F9.8°C 47.8°F8.8°C 93% 17.0 mph WSW27.4 kmh WSW 31.0 mph49.9 kmh 29.71 in1006.1 mb 0.01 in0.3 mm 0.00 in0.0 mm 0.04 in1.0 mm
06:10 PM 49.7°F9.8°C 47.8°F8.8°C 93% 14.0 mph WSW22.5 kmh WSW 20.0 mph32.2 kmh 29.71 in1006.1 mb 0.02 in0.5 mm 0.00 in0.0 mm 0.04 in1.0 mm
06:09 PM 49.7°F9.8°C 47.8°F8.8°C 93% 15.0 mph WSW24.1 kmh WSW 25.0 mph40.2 kmh 29.72 in1006.4 mb 0.02 in0.5 mm 0.00 in0.0 mm 0.04 in1.0 mm
06:08 PM 49.7°F9.8°C 47.8°F8.8°C 93% 14.0 mph W22.5 kmh W 23.0 mph37.0 kmh 29.71 in1006.1 mb 0.02 in0.5 mm 0.00 in0.0 mm 0.04 in1.0 mm
06:07 PM 49.6°F9.8°C 47.7°F8.7°C 93% 14.0 mph WSW22.5 kmh WSW 21.0 mph33.8 kmh 29.71 in1006.1 mb 0.02 in0.5 mm 0.00 in0.0 mm 0.04 in1.0 mm
06:06 PM 49.6°F9.8°C 47.7°F8.7°C 93% 10.0 mph W16.1 kmh W 14.0 mph22.5 kmh 29.71 in1006.1 mb 0.02 in0.5 mm 0.00 in0.0 mm 0.04 in1.0 mm
06:05 PM 49.6°F9.8°C 47.7°F8.7°C 93% 15.0 mph WSW24.1 kmh WSW 24.0 mph38.6 kmh 29.71 in1006.1 mb 0.02 in0.5 mm 0.00 in0.0 mm 0.04 in1.0 mm
06:04 PM 49.6°F9.8°C 47.7°F8.7°C 93% 15.0 mph WSW24.1 kmh WSW 23.0 mph37.0 kmh 29.71 in1006.1 mb 0.02 in0.5 mm 0.00 in0.0 mm 0.04 in1.0 mm
06:03 PM 49.6°F9.8°C 47.7°F8.7°C 93% 12.0 mph W19.3 kmh W 20.0 mph32.2 kmh 29.71 in1006.1 mb 0.02 in0.5 mm 0.00 in0.0 mm 0.04 in1.0 mm
06:02 PM 49.6°F9.8°C 47.9°F8.8°C 94% 13.0 mph SW20.9 kmh SW 20.0 mph32.2 kmh 29.71 in1006.1 mb 0.02 in0.5 mm 0.00 in0.0 mm 0.13 in3.3 mm
06:01 PM 49.6°F9.8°C 47.9°F8.8°C 94% 13.0 mph WSW20.9 kmh WSW 24.0 mph38.6 kmh 29.71 in1006.1 mb 0.02 in0.5 mm 0.00 in0.0 mm 0.04 in1.0 mm
06:00 PM 49.6°F9.8°C 47.9°F8.8°C 94% 14.0 mph WSW22.5 kmh WSW 24.0 mph38.6 kmh 29.71 in1006.1 mb 0.02 in0.5 mm 0.00 in0.0 mm 0.04 in1.0 mm
05:59 PM 49.6°F9.8°C 47.9°F8.8°C 94% 14.0 mph W22.5 kmh W 19.0 mph30.6 kmh 29.71 in1006.1 mb 0.02 in0.5 mm 0.00 in0.0 mm 0.04 in1.0 mm
05:58 PM 49.5°F9.7°C 47.6°F8.7°C 93% 13.0 mph WSW20.9 kmh WSW 18.0 mph29.0 kmh 29.71 in1006.1 mb 0.02 in0.5 mm 0.00 in0.0 mm 0.04 in1.0 mm
05:57 PM 49.5°F9.7°C 47.6°F8.7°C 93% 13.0 mph SW20.9 kmh SW 20.0 mph32.2 kmh 29.71 in1006.1 mb 0.02 in0.5 mm 0.00 in0.0 mm 0.04 in1.0 mm
05:56 PM 49.5°F9.7°C 47.6°F8.7°C 93% 17.0 mph WSW27.4 kmh WSW 28.0 mph45.1 kmh 29.70 in1005.8 mb 0.02 in0.5 mm 0.00 in0.0 mm 0.04 in1.0 mm
05:55 PM 49.5°F9.7°C 47.6°F8.7°C 93% 11.0 mph W17.7 kmh W 15.0 mph24.1 kmh 29.70 in1005.8 mb 0.02 in0.5 mm 0.00 in0.0 mm 0.04 in1.0 mm
05:54 PM 49.5°F9.7°C 47.6°F8.7°C 93% 17.0 mph SW27.4 kmh SW 24.0 mph38.6 kmh 29.71 in1006.1 mb 0.02 in0.5 mm 0.00 in0.0 mm 0.04 in1.0 mm
05:53 PM 49.5°F9.7°C 47.6°F8.7°C 93% 15.0 mph SW24.1 kmh SW 25.0 mph40.2 kmh 29.70 in1005.8 mb 0.02 in0.5 mm 0.00 in0.0 mm 0.04 in1.0 mm
05:52 PM 49.5°F9.7°C 47.6°F8.7°C 93% 17.0 mph SW27.4 kmh SW 28.0 mph45.1 kmh 29.70 in1005.8 mb 0.02 in0.5 mm 0.00 in0.0 mm 0.04 in1.0 mm
05:51 PM 49.5°F9.7°C 47.8°F8.8°C 94% 14.0 mph WSW22.5 kmh WSW 23.0 mph37.0 kmh 29.70 in1005.8 mb 0.02 in0.5 mm 0.00 in0.0 mm 0.04 in1.0 mm
05:50 PM 49.5°F9.7°C 47.8°F8.8°C 94% 15.0 mph WSW24.1 kmh WSW 25.0 mph40.2 kmh 29.69 in1005.4 mb 0.02 in0.5 mm 0.00 in0.0 mm 0.04 in1.0 mm
05:49 PM 49.5°F9.7°C 47.8°F8.8°C 94% 13.0 mph WSW20.9 kmh WSW 20.0 mph32.2 kmh 29.70 in1005.8 mb 0.02 in0.5 mm 0.00 in0.0 mm 0.04 in1.0 mm
05:48 PM 49.5°F9.7°C 47.8°F8.8°C 94% 15.0 mph WSW24.1 kmh WSW 20.0 mph32.2 kmh 29.69 in1005.4 mb 0.02 in0.5 mm 0.00 in0.0 mm 0.04 in1.0 mm
05:47 PM 49.5°F9.7°C 47.8°F8.8°C 94% 14.0 mph WSW22.5 kmh WSW 24.0 mph38.6 kmh 29.69 in1005.4 mb 0.02 in0.5 mm 0.00 in0.0 mm 0.13 in3.3 mm
05:46 PM 49.5°F9.7°C 47.8°F8.8°C 94% 13.0 mph WSW20.9 kmh WSW 19.0 mph30.6 kmh 29.70 in1005.8 mb 0.02 in0.5 mm 0.00 in0.0 mm 0.04 in1.0 mm
05:45 PM 49.4°F9.7°C 47.7°F8.7°C 94% 16.0 mph SW25.7 kmh SW 24.0 mph38.6 kmh 29.70 in1005.8 mb 0.02 in0.5 mm 0.00 in0.0 mm 0.04 in1.0 mm
05:44 PM 49.4°F9.7°C 47.7°F8.7°C 94% 15.0 mph WSW24.1 kmh WSW 21.0 mph33.8 kmh 29.70 in1005.8 mb 0.02 in0.5 mm 0.00 in0.0 mm 0.04 in1.0 mm
05:43 PM 49.4°F9.7°C 47.7°F8.7°C 94% 14.0 mph WSW22.5 kmh WSW 23.0 mph37.0 kmh 29.70 in1005.8 mb 0.02 in0.5 mm 0.00 in0.0 mm 0.04 in1.0 mm
05:42 PM 49.4°F9.7°C 47.7°F8.7°C 94% 15.0 mph W24.1 kmh W 24.0 mph38.6 kmh 29.70 in1005.8 mb 0.02 in0.5 mm 0.00 in0.0 mm 0.04 in1.0 mm
05:41 PM 49.4°F9.7°C 47.7°F8.7°C 94% 16.0 mph WSW25.7 kmh WSW 25.0 mph40.2 kmh 29.70 in1005.8 mb 0.02 in0.5 mm 0.00 in0.0 mm 0.13 in3.3 mm
05:40 PM 49.4°F9.7°C 47.7°F8.7°C 94% 13.0 mph WSW20.9 kmh WSW 20.0 mph32.2 kmh 29.70 in1005.8 mb 0.02 in0.5 mm 0.00 in0.0 mm 0.04 in1.0 mm
05:39 PM 49.4°F9.7°C 47.7°F8.7°C 94% 15.0 mph WSW24.1 kmh WSW 20.0 mph32.2 kmh 29.71 in1006.1 mb 0.02 in0.5 mm 0.00 in0.0 mm 0.04 in1.0 mm
05:38 PM 49.4°F9.7°C 47.7°F8.7°C 94% 14.0 mph SW22.5 kmh SW 24.0 mph38.6 kmh 29.70 in1005.8 mb 0.02 in0.5 mm 0.00 in0.0 mm 0.04 in1.0 mm
05:37 PM 49.4°F9.7°C 47.7°F8.7°C 94% 14.0 mph WSW22.5 kmh WSW 21.0 mph33.8 kmh 29.71 in1006.1 mb 0.02 in0.5 mm 0.00 in0.0 mm 0.04 in1.0 mm
05:36 PM 49.4°F9.7°C 47.7°F8.7°C 94% 16.0 mph WSW25.7 kmh WSW 29.0 mph46.7 kmh 29.71 in1006.1 mb 0.02 in0.5 mm 0.00 in0.0 mm 0.13 in3.3 mm
05:35 PM 49.4°F9.7°C 47.7°F8.7°C 94% 11.0 mph W17.7 kmh W 16.0 mph25.7 kmh 29.71 in1006.1 mb 0.02 in0.5 mm 0.00 in0.0 mm 0.04 in1.0 mm
05:34 PM 49.4°F9.7°C 47.7°F8.7°C 94% 13.0 mph W20.9 kmh W 20.0 mph32.2 kmh 29.72 in1006.4 mb 0.02 in0.5 mm 0.00 in0.0 mm 0.04 in1.0 mm
05:33 PM 49.4°F9.7°C 47.7°F8.7°C 94% 16.0 mph SW25.7 kmh SW 27.0 mph43.5 kmh 29.71 in1006.1 mb 0.02 in0.5 mm 0.00 in0.0 mm 0.13 in3.3 mm
05:32 PM 49.4°F9.7°C 47.7°F8.7°C 94% 11.0 mph WSW17.7 kmh WSW 16.0 mph25.7 kmh 29.72 in1006.4 mb 0.03 in0.8 mm 0.00 in0.0 mm 0.04 in1.0 mm
05:31 PM 49.4°F9.7°C 47.7°F8.7°C 94% 13.0 mph WSW20.9 kmh WSW 18.0 mph29.0 kmh 29.72 in1006.4 mb 0.03 in0.8 mm 0.00 in0.0 mm 0.04 in1.0 mm
05:30 PM 49.4°F9.7°C 47.7°F8.7°C 94% 14.0 mph WSW22.5 kmh WSW 21.0 mph33.8 kmh 29.72 in1006.4 mb 0.03 in0.8 mm 0.00 in0.0 mm 0.13 in3.3 mm
05:29 PM 49.4°F9.7°C 47.7°F8.7°C 94% 11.0 mph WSW17.7 kmh WSW 19.0 mph30.6 kmh 29.72 in1006.4 mb 0.03 in0.8 mm 0.00 in0.0 mm 0.04 in1.0 mm
05:28 PM 49.4°F9.7°C 47.7°F8.7°C 94% 11.0 mph SW17.7 kmh SW 17.0 mph27.4 kmh 29.73 in1006.8 mb 0.03 in0.8 mm 0.00 in0.0 mm 0.04 in1.0 mm
05:27 PM 49.4°F9.7°C 47.7°F8.7°C 94% 12.0 mph W19.3 kmh W 18.0 mph29.0 kmh 29.72 in1006.4 mb 0.03 in0.8 mm 0.00 in0.0 mm 0.04 in1.0 mm
05:26 PM 49.4°F9.7°C 47.7°F8.7°C 94% 12.0 mph W19.3 kmh W 20.0 mph32.2 kmh 29.72 in1006.4 mb 0.03 in0.8 mm 0.00 in0.0 mm 0.04 in1.0 mm
05:25 PM 49.4°F9.7°C 47.7°F8.7°C 94% 16.0 mph WSW25.7 kmh WSW 30.0 mph48.3 kmh 29.71 in1006.1 mb 0.03 in0.8 mm 0.00 in0.0 mm 0.04 in1.0 mm
05:24 PM 49.4°F9.7°C 47.7°F8.7°C 94% 12.0 mph W19.3 kmh W 18.0 mph29.0 kmh 29.72 in1006.4 mb 0.03 in0.8 mm 0.00 in0.0 mm 0.04 in1.0 mm
05:23 PM 49.4°F9.7°C 47.7°F8.7°C 94% 18.0 mph WSW29.0 kmh WSW 28.0 mph45.1 kmh 29.72 in1006.4 mb 0.03 in0.8 mm 0.00 in0.0 mm 0.04 in1.0 mm
05:22 PM 49.4°F9.7°C 47.7°F8.7°C 94% 14.0 mph WSW22.5 kmh WSW 21.0 mph33.8 kmh 29.72 in1006.4 mb 0.03 in0.8 mm 0.00 in0.0 mm 0.04 in1.0 mm
05:21 PM 49.4°F9.7°C 47.7°F8.7°C 94% 14.0 mph W22.5 kmh W 20.0 mph32.2 kmh 29.72 in1006.4 mb 0.03 in0.8 mm 0.60 in15.2 mm 0.04 in1.0 mm
05:20 PM 49.4°F9.7°C 47.7°F8.7°C 94% 15.0 mph SW24.1 kmh SW 24.0 mph38.6 kmh 29.72 in1006.4 mb 0.02 in0.5 mm 0.00 in0.0 mm 0.03 in0.8 mm
05:19 PM 49.4°F9.7°C 47.7°F8.7°C 94% 13.0 mph SW20.9 kmh SW 21.0 mph33.8 kmh 29.72 in1006.4 mb 0.02 in0.5 mm 0.00 in0.0 mm 0.03 in0.8 mm
05:18 PM 49.4°F9.7°C 47.7°F8.7°C 94% 15.0 mph SW24.1 kmh SW 24.0 mph38.6 kmh 29.72 in1006.4 mb 0.02 in0.5 mm 0.00 in0.0 mm 0.03 in0.8 mm
05:17 PM 49.3°F9.6°C 47.6°F8.7°C 94% 16.0 mph W25.7 kmh W 36.0 mph57.9 kmh 29.73 in1006.8 mb 0.02 in0.5 mm 0.00 in0.0 mm 0.03 in0.8 mm
05:16 PM 49.4°F9.7°C 47.7°F8.7°C 94% 14.0 mph WSW22.5 kmh WSW 22.0 mph35.4 kmh 29.72 in1006.4 mb 0.02 in0.5 mm 0.00 in0.0 mm 0.03 in0.8 mm
05:15 PM 49.3°F9.6°C 47.6°F8.7°C 94% 15.0 mph SW24.1 kmh SW 25.0 mph40.2 kmh 29.72 in1006.4 mb 0.02 in0.5 mm 0.00 in0.0 mm 0.03 in0.8 mm
05:14 PM 49.4°F9.7°C 47.7°F8.7°C 94% 10.0 mph W16.1 kmh W 17.0 mph27.4 kmh 29.72 in1006.4 mb 0.02 in0.5 mm 0.00 in0.0 mm 0.03 in0.8 mm
05:13 PM 49.3°F9.6°C 47.6°F8.7°C 94% 14.0 mph WSW22.5 kmh WSW 22.0 mph35.4 kmh 29.72 in1006.4 mb 0.02 in0.5 mm 0.00 in0.0 mm 0.03 in0.8 mm
05:12 PM 49.4°F9.7°C 47.7°F8.7°C 94% 15.0 mph WSW24.1 kmh WSW 21.0 mph33.8 kmh 29.72 in1006.4 mb 0.02 in0.5 mm 0.00 in0.0 mm 0.03 in0.8 mm
05:11 PM 49.4°F9.7°C 47.7°F8.7°C 94% 15.0 mph SW24.1 kmh SW 25.0 mph40.2 kmh 29.72 in1006.4 mb 0.02 in0.5 mm 0.00 in0.0 mm 0.03 in0.8 mm
05:10 PM 49.4°F9.7°C 47.7°F8.7°C 94% 15.0 mph WSW24.1 kmh WSW 24.0 mph38.6 kmh 29.72 in1006.4 mb 0.02 in0.5 mm 0.00 in0.0 mm 0.02 in0.5 mm
05:09 PM 49.4°F9.7°C 47.7°F8.7°C 94% 16.0 mph SW25.7 kmh SW 27.0 mph43.5 kmh 29.72 in1006.4 mb 0.02 in0.5 mm 0.00 in0.0 mm 0.02 in0.5 mm
05:08 PM 49.4°F9.7°C 47.7°F8.7°C 94% 14.0 mph WSW22.5 kmh WSW 26.0 mph41.8 kmh 29.72 in1006.4 mb 0.02 in0.5 mm 0.00 in0.0 mm 0.12 in3.0 mm
05:07 PM 49.4°F9.7°C 47.7°F8.7°C 94% 10.0 mph WSW16.1 kmh WSW 15.0 mph24.1 kmh 29.72 in1006.4 mb 0.02 in0.5 mm 0.00 in0.0 mm 0.02 in0.5 mm
05:06 PM 49.4°F9.7°C 47.7°F8.7°C 94% 12.0 mph WSW19.3 kmh WSW 18.0 mph29.0 kmh 29.72 in1006.4 mb 0.02 in0.5 mm 0.00 in0.0 mm 0.02 in0.5 mm
05:05 PM 49.4°F9.7°C 47.7°F8.7°C 94% 10.0 mph WSW16.1 kmh WSW 17.0 mph27.4 kmh 29.72 in1006.4 mb 0.02 in0.5 mm 0.00 in0.0 mm 0.12 in3.0 mm
05:04 PM 49.3°F9.6°C 47.6°F8.7°C 94% 12.0 mph WSW19.3 kmh WSW 16.0 mph25.7 kmh 29.72 in1006.4 mb 0.02 in0.5 mm 0.00 in0.0 mm 0.02 in0.5 mm
05:03 PM 49.4°F9.7°C 47.7°F8.7°C 94% 11.0 mph WSW17.7 kmh WSW 19.0 mph30.6 kmh 29.73 in1006.8 mb 0.02 in0.5 mm 0.00 in0.0 mm 0.02 in0.5 mm
05:02 PM 49.4°F9.7°C 47.7°F8.7°C 94% 13.0 mph WSW20.9 kmh WSW 19.0 mph30.6 kmh 29.73 in1006.8 mb 0.02 in0.5 mm 0.00 in0.0 mm 0.02 in0.5 mm
05:01 PM 49.4°F9.7°C 47.7°F8.7°C 94% 13.0 mph WSW20.9 kmh WSW 23.0 mph37.0 kmh 29.72 in1006.4 mb 0.02 in0.5 mm 0.00 in0.0 mm 0.02 in0.5 mm
05:00 PM 49.4°F9.7°C 47.7°F8.7°C 94% 12.0 mph WSW19.3 kmh WSW 18.0 mph29.0 kmh 29.73 in1006.8 mb 0.02 in0.5 mm 0.00 in0.0 mm 0.02 in0.5 mm
04:59 PM 49.4°F9.7°C 47.7°F8.7°C 94% 9.0 mph W14.5 kmh W 15.0 mph24.1 kmh 29.73 in1006.8 mb 0.02 in0.5 mm 0.00 in0.0 mm 0.02 in0.5 mm
04:58 PM 49.4°F9.7°C 47.7°F8.7°C 94% 10.0 mph WSW16.1 kmh WSW 19.0 mph30.6 kmh 29.73 in1006.8 mb 0.02 in0.5 mm 0.00 in0.0 mm 0.02 in0.5 mm
04:57 PM 49.4°F9.7°C 47.7°F8.7°C 94% 14.0 mph SW22.5 kmh SW 21.0 mph33.8 kmh 29.73 in1006.8 mb 0.02 in0.5 mm 0.00 in0.0 mm 0.02 in0.5 mm
04:56 PM 49.4°F9.7°C 47.7°F8.7°C 94% 14.0 mph WSW22.5 kmh WSW 21.0 mph33.8 kmh 29.73 in1006.8 mb 0.02 in0.5 mm 0.00 in0.0 mm 0.02 in0.5 mm
04:55 PM 49.4°F9.7°C 47.7°F8.7°C 94% 15.0 mph WSW24.1 kmh WSW 24.0 mph38.6 kmh 29.73 in1006.8 mb 0.02 in0.5 mm 0.00 in0.0 mm 0.02 in0.5 mm
04:54 PM 49.4°F9.7°C 47.7°F8.7°C 94% 15.0 mph SW24.1 kmh SW 25.0 mph40.2 kmh 29.73 in1006.8 mb 0.02 in0.5 mm 0.00 in0.0 mm 0.02 in0.5 mm
04:53 PM 49.4°F9.7°C 47.7°F8.7°C 94% 13.0 mph W20.9 kmh W 20.0 mph32.2 kmh 29.73 in1006.8 mb 0.02 in0.5 mm 0.00 in0.0 mm 0.02 in0.5 mm
04:52 PM 49.4°F9.7°C 47.7°F8.7°C 94% 12.0 mph W19.3 kmh W 23.0 mph37.0 kmh 29.74 in1007.1 mb 0.02 in0.5 mm 0.00 in0.0 mm 0.02 in0.5 mm
04:51 PM 49.4°F9.7°C 47.7°F8.7°C 94% 12.0 mph WSW19.3 kmh WSW 20.0 mph32.2 kmh 29.73 in1006.8 mb 0.02 in0.5 mm 0.00 in0.0 mm 0.12 in3.0 mm
04:50 PM 49.3°F9.6°C 47.6°F8.7°C 94% 12.0 mph WSW19.3 kmh WSW 17.0 mph27.4 kmh 29.73 in1006.8 mb 0.02 in0.5 mm 0.00 in0.0 mm 0.02 in0.5 mm
04:49 PM 49.3°F9.6°C 47.6°F8.7°C 94% 15.0 mph WSW24.1 kmh WSW 25.0 mph40.2 kmh 29.73 in1006.8 mb 0.02 in0.5 mm 0.00 in0.0 mm 0.02 in0.5 mm
04:48 PM 49.3°F9.6°C 47.6°F8.7°C 94% 13.0 mph W20.9 kmh W 26.0 mph41.8 kmh 29.73 in1006.8 mb 0.02 in0.5 mm 0.00 in0.0 mm 0.02 in0.5 mm
04:47 PM 49.3°F9.6°C 47.6°F8.7°C 94% 13.0 mph WSW20.9 kmh WSW 19.0 mph30.6 kmh 29.73 in1006.8 mb 0.02 in0.5 mm 0.00 in0.0 mm 0.02 in0.5 mm
04:46 PM 49.3°F9.6°C 47.6°F8.7°C 94% 15.0 mph WSW24.1 kmh WSW 24.0 mph38.6 kmh 29.73 in1006.8 mb 0.02 in0.5 mm 0.00 in0.0 mm 0.02 in0.5 mm
04:45 PM 49.3°F9.6°C 47.6°F8.7°C 94% 10.0 mph W16.1 kmh W 15.0 mph24.1 kmh 29.74 in1007.1 mb 0.02 in0.5 mm 0.00 in0.0 mm 0.02 in0.5 mm
04:44 PM 49.3°F9.6°C 47.6°F8.7°C 94% 14.0 mph WSW22.5 kmh WSW 20.0 mph32.2 kmh 29.74 in1007.1 mb 0.02 in0.5 mm 0.00 in0.0 mm 0.02 in0.5 mm
04:43 PM 49.3°F9.6°C 47.6°F8.7°C 94% 12.0 mph W19.3 kmh W 17.0 mph27.4 kmh 29.74 in1007.1 mb 0.02 in0.5 mm 0.00 in0.0 mm 0.02 in0.5 mm
04:42 PM 49.3°F9.6°C 47.6°F8.7°C 94% 10.0 mph W16.1 kmh W 16.0 mph25.7 kmh 29.74 in1007.1 mb 0.02 in0.5 mm 0.00 in0.0 mm 0.02 in0.5 mm
04:41 PM 49.3°F9.6°C 47.6°F8.7°C 94% 13.0 mph SW20.9 kmh SW 19.0 mph30.6 kmh 29.74 in1007.1 mb 0.02 in0.5 mm 0.00 in0.0 mm 0.02 in0.5 mm
04:40 PM 49.3°F9.6°C 47.6°F8.7°C 94% 16.0 mph WSW25.7 kmh WSW 27.0 mph43.5 kmh 29.73 in1006.8 mb 0.02 in0.5 mm 0.00 in0.0 mm 0.11 in2.8 mm
04:39 PM 49.3°F9.6°C 47.6°F8.7°C 94% 12.0 mph WSW19.3 kmh WSW 17.0 mph27.4 kmh 29.74 in1007.1 mb 0.02 in0.5 mm 0.00 in0.0 mm 0.02 in0.5 mm
04:38 PM 49.3°F9.6°C 47.6°F8.7°C 94% 9.0 mph WSW14.5 kmh WSW 18.0 mph29.0 kmh 29.74 in1007.1 mb 0.02 in0.5 mm 0.00 in0.0 mm 0.02 in0.5 mm
04:37 PM 49.3°F9.6°C 47.6°F8.7°C 94% 13.0 mph WSW20.9 kmh WSW 18.0 mph29.0 kmh 29.74 in1007.1 mb 0.02 in0.5 mm 0.00 in0.0 mm 0.02 in0.5 mm
04:36 PM 49.3°F9.6°C 47.6°F8.7°C 94% 13.0 mph WSW20.9 kmh WSW 20.0 mph32.2 kmh 29.74 in1007.1 mb 0.02 in0.5 mm 0.00 in0.0 mm 0.02 in0.5 mm
04:35 PM 49.3°F9.6°C 47.6°F8.7°C 94% 14.0 mph SW22.5 kmh SW 21.0 mph33.8 kmh 29.74 in1007.1 mb 0.02 in0.5 mm 0.00 in0.0 mm 0.02 in0.5 mm
04:34 PM 49.3°F9.6°C 47.6°F8.7°C 94% 13.0 mph W20.9 kmh W 29.0 mph46.7 kmh 29.74 in1007.1 mb 0.02 in0.5 mm 0.00 in0.0 mm 0.11 in2.8 mm
04:33 PM 49.4°F9.7°C 47.7°F8.7°C 94% 15.0 mph WSW24.1 kmh WSW 25.0 mph40.2 kmh 29.74 in1007.1 mb 0.02 in0.5 mm 0.60 in15.2 mm 0.02 in0.5 mm
04:32 PM 49.4°F9.7°C 47.7°F8.7°C 94% 14.0 mph WSW22.5 kmh WSW 28.0 mph45.1 kmh 29.74 in1007.1 mb 0.01 in0.3 mm 0.00 in0.0 mm 0.01 in0.3 mm
04:31 PM 49.4°F9.7°C 47.7°F8.7°C 94% 12.0 mph WSW19.3 kmh WSW 22.0 mph35.4 kmh 29.74 in1007.1 mb 0.01 in0.3 mm 0.00 in0.0 mm 0.01 in0.3 mm
04:30 PM 49.4°F9.7°C 47.7°F8.7°C 94% 10.0 mph W16.1 kmh W 14.0 mph22.5 kmh 29.74 in1007.1 mb 0.01 in0.3 mm 0.00 in0.0 mm 0.01 in0.3 mm
04:29 PM 49.4°F9.7°C 47.7°F8.7°C 94% 17.0 mph SW27.4 kmh SW 30.0 mph48.3 kmh 29.74 in1007.1 mb 0.01 in0.3 mm 0.00 in0.0 mm 0.01 in0.3 mm
04:28 PM 49.4°F9.7°C 47.7°F8.7°C 94% 14.0 mph WSW22.5 kmh WSW 23.0 mph37.0 kmh 29.73 in1006.8 mb 0.01 in0.3 mm 0.00 in0.0 mm 0.10 in2.5 mm
04:27 PM 49.4°F9.7°C 47.7°F8.7°C 94% 15.0 mph SW24.1 kmh SW 27.0 mph43.5 kmh 29.74 in1007.1 mb 0.01 in0.3 mm 0.00 in0.0 mm 0.01 in0.3 mm
04:26 PM 49.4°F9.7°C 47.7°F8.7°C 94% 11.0 mph W17.7 kmh W 24.0 mph38.6 kmh 29.74 in1007.1 mb 0.01 in0.3 mm 0.00 in0.0 mm 0.01 in0.3 mm
04:25 PM 49.4°F9.7°C 47.7°F8.7°C 94% 15.0 mph W24.1 kmh W 32.0 mph51.5 kmh 29.74 in1007.1 mb 0.01 in0.3 mm 0.00 in0.0 mm 0.10 in2.5 mm
04:24 PM 49.4°F9.7°C 47.7°F8.7°C 94% 18.0 mph SW29.0 kmh SW 29.0 mph46.7 kmh 29.75 in1007.5 mb 0.01 in0.3 mm 0.00 in0.0 mm 0.01 in0.3 mm
04:23 PM 49.4°F9.7°C 47.7°F8.7°C 94% 11.0 mph WSW17.7 kmh WSW 19.0 mph30.6 kmh 29.74 in1007.1 mb 0.01 in0.3 mm 0.00 in0.0 mm 0.01 in0.3 mm
04:22 PM 49.4°F9.7°C 47.7°F8.7°C 94% 13.0 mph W20.9 kmh W 24.0 mph38.6 kmh 29.74 in1007.1 mb 0.01 in0.3 mm 0.00 in0.0 mm 0.01 in0.3 mm
04:21 PM 49.4°F9.7°C 47.7°F8.7°C 94% 15.0 mph WSW24.1 kmh WSW 22.0 mph35.4 kmh 29.75 in1007.5 mb 0.01 in0.3 mm 0.00 in0.0 mm 0.01 in0.3 mm
04:20 PM 49.4°F9.7°C 47.7°F8.7°C 94% 14.0 mph WSW22.5 kmh WSW 20.0 mph32.2 kmh 29.74 in1007.1 mb 0.01 in0.3 mm 0.00 in0.0 mm 0.10 in2.5 mm
04:19 PM 49.4°F9.7°C 47.7°F8.7°C 94% 14.0 mph WSW22.5 kmh WSW 29.0 mph46.7 kmh 29.74 in1007.1 mb 0.01 in0.3 mm 0.00 in0.0 mm 0.01 in0.3 mm
04:18 PM 49.4°F9.7°C 47.7°F8.7°C 94% 15.0 mph WSW24.1 kmh WSW 27.0 mph43.5 kmh 29.75 in1007.5 mb 0.01 in0.3 mm 0.00 in0.0 mm 0.01 in0.3 mm
04:17 PM 49.4°F9.7°C 47.7°F8.7°C 94% 13.0 mph WSW20.9 kmh WSW 22.0 mph35.4 kmh 29.74 in1007.1 mb 0.01 in0.3 mm 0.00 in0.0 mm 0.10 in2.5 mm
04:16 PM 49.4°F9.7°C 47.7°F8.7°C 94% 13.0 mph WSW20.9 kmh WSW 22.0 mph35.4 kmh 29.75 in1007.5 mb 0.01 in0.3 mm 0.00 in0.0 mm 0.10 in2.5 mm
04:15 PM 49.4°F9.7°C 47.7°F8.7°C 94% 17.0 mph WSW27.4 kmh WSW 28.0 mph45.1 kmh 29.75 in1007.5 mb 0.01 in0.3 mm 0.00 in0.0 mm 0.01 in0.3 mm
04:14 PM 49.5°F9.7°C 47.8°F8.8°C 94% 14.0 mph WSW22.5 kmh WSW 25.0 mph40.2 kmh 29.75 in1007.5 mb 0.01 in0.3 mm 0.00 in0.0 mm 0.01 in0.3 mm
04:13 PM 49.5°F9.7°C 47.8°F8.8°C 94% 15.0 mph WSW24.1 kmh WSW 20.0 mph32.2 kmh 29.75 in1007.5 mb 0.01 in0.3 mm 0.00 in0.0 mm 0.01 in0.3 mm
04:12 PM 49.5°F9.7°C 47.8°F8.8°C 94% 16.0 mph WSW25.7 kmh WSW 30.0 mph48.3 kmh 29.75 in1007.5 mb 0.01 in0.3 mm 0.00 in0.0 mm 0.01 in0.3 mm
04:11 PM 49.5°F9.7°C 47.8°F8.8°C 94% 14.0 mph WSW22.5 kmh WSW 27.0 mph43.5 kmh 29.75 in1007.5 mb 0.01 in0.3 mm 0.00 in0.0 mm 0.01 in0.3 mm
04:10 PM 49.5°F9.7°C 47.8°F8.8°C 94% 12.0 mph SW19.3 kmh SW 20.0 mph32.2 kmh 29.75 in1007.5 mb 0.01 in0.3 mm 0.00 in0.0 mm 0.10 in2.5 mm
04:09 PM 49.5°F9.7°C 47.8°F8.8°C 94% 12.0 mph WSW19.3 kmh WSW 23.0 mph37.0 kmh 29.75 in1007.5 mb 0.01 in0.3 mm 0.00 in0.0 mm 0.10 in2.5 mm
04:08 PM 49.5°F9.7°C 47.8°F8.8°C 94% 12.0 mph WSW19.3 kmh WSW 19.0 mph30.6 kmh 29.75 in1007.5 mb 0.01 in0.3 mm 0.00 in0.0 mm 0.01 in0.3 mm
04:07 PM 49.5°F9.7°C 47.8°F8.8°C 94% 13.0 mph SW20.9 kmh SW 25.0 mph40.2 kmh 29.75 in1007.5 mb 0.01 in0.3 mm 0.00 in0.0 mm 0.01 in0.3 mm
04:06 PM 49.6°F9.8°C 47.7°F8.7°C 93% 14.0 mph W22.5 kmh W 29.0 mph46.7 kmh 29.75 in1007.5 mb 0.01 in0.3 mm 0.00 in0.0 mm 0.01 in0.3 mm
04:05 PM 49.6°F9.8°C 47.9°F8.8°C 94% 16.0 mph WSW25.7 kmh WSW 28.0 mph45.1 kmh 29.75 in1007.5 mb 0.01 in0.3 mm 0.60 in15.2 mm 0.09 in2.3 mm
04:04 PM 49.6°F9.8°C 47.9°F8.8°C 94% 13.0 mph WSW20.9 kmh WSW 22.0 mph35.4 kmh 29.75 in1007.5 mb 0.00 in0.0 mm 0.00 in0.0 mm 0.09 in2.3 mm
04:03 PM 49.6°F9.8°C 47.9°F8.8°C 94% 11.0 mph W17.7 kmh W 18.0 mph29.0 kmh 29.75 in1007.5 mb 0.00 in0.0 mm 0.00 in0.0 mm 0.09 in2.3 mm
04:02 PM 49.6°F9.8°C 47.9°F8.8°C 94% 18.0 mph SW29.0 kmh SW 26.0 mph41.8 kmh 29.75 in1007.5 mb 0.00 in0.0 mm 0.00 in0.0 mm 0.09 in2.3 mm
04:01 PM 49.6°F9.8°C 47.9°F8.8°C 94% 12.0 mph SW19.3 kmh SW 18.0 mph29.0 kmh 29.75 in1007.5 mb 0.00 in0.0 mm 0.00 in0.0 mm 0.00 in0.0 mm
04:00 PM 49.6°F9.8°C 47.9°F8.8°C 94% 14.0 mph WSW22.5 kmh WSW 25.0 mph40.2 kmh 29.75 in1007.5 mb 0.00 in0.0 mm 0.00 in0.0 mm 0.00 in0.0 mm
03:59 PM 49.6°F9.8°C 47.9°F8.8°C 94% 14.0 mph WSW22.5 kmh WSW 21.0 mph33.8 kmh 29.75 in1007.5 mb 0.00 in0.0 mm 0.00 in0.0 mm 0.00 in0.0 mm
03:58 PM 49.6°F9.8°C 47.9°F8.8°C 94% 13.0 mph WSW20.9 kmh WSW 22.0 mph35.4 kmh 29.75 in1007.5 mb 0.00 in0.0 mm 0.00 in0.0 mm 0.00 in0.0 mm
03:57 PM 49.6°F9.8°C 47.9°F8.8°C 94% 13.0 mph WSW20.9 kmh WSW 24.0 mph38.6 kmh 29.76 in1007.8 mb 0.00 in0.0 mm 0.00 in0.0 mm 0.00 in0.0 mm
03:56 PM 49.6°F9.8°C 47.7°F8.7°C 93% 14.0 mph WSW22.5 kmh WSW 22.0 mph35.4 kmh 29.76 in1007.8 mb 0.00 in0.0 mm 0.00 in0.0 mm 0.00 in0.0 mm
03:55 PM 49.7°F9.8°C 47.8°F8.8°C 93% 11.0 mph WSW17.7 kmh WSW 20.0 mph32.2 kmh 29.76 in1007.8 mb 0.00 in0.0 mm 0.00 in0.0 mm 0.00 in0.0 mm
03:54 PM 49.7°F9.8°C 47.8°F8.8°C 93% 12.0 mph WSW19.3 kmh WSW 17.0 mph27.4 kmh 29.76 in1007.8 mb 0.00 in0.0 mm 0.00 in0.0 mm 0.00 in0.0 mm
03:53 PM 49.7°F9.8°C 47.8°F8.8°C 93% 12.0 mph WSW19.3 kmh WSW 18.0 mph29.0 kmh 29.76 in1007.8 mb 0.00 in0.0 mm 0.00 in0.0 mm 0.00 in0.0 mm
03:52 PM 49.7°F9.8°C 47.8°F8.8°C 93% 14.0 mph SW22.5 kmh SW 17.0 mph27.4 kmh 29.76 in1007.8 mb 0.00 in0.0 mm 0.00 in0.0 mm 0.00 in0.0 mm
03:51 PM 49.7°F9.8°C 47.8°F8.8°C 93% 14.0 mph W22.5 kmh W 17.0 mph27.4 kmh 29.76 in1007.8 mb 0.00 in0.0 mm 0.00 in0.0 mm 0.00 in0.0 mm
03:50 PM 49.7°F9.8°C 47.8°F8.8°C 93% 13.0 mph WSW20.9 kmh WSW 20.0 mph32.2 kmh 29.76 in1007.8 mb 0.00 in0.0 mm 0.00 in0.0 mm 0.00 in0.0 mm
03:49 PM 49.7°F9.8°C 47.8°F8.8°C 93% 17.0 mph WSW27.4 kmh WSW 27.0 mph43.5 kmh 29.76 in1007.8 mb 0.00 in0.0 mm 0.00 in0.0 mm 0.00 in0.0 mm
03:48 PM 49.7°F9.8°C 47.8°F8.8°C 93% 12.0 mph WSW19.3 kmh WSW 18.0 mph29.0 kmh 29.76 in1007.8 mb 0.00 in0.0 mm 0.00 in0.0 mm 0.00 in0.0 mm
03:47 PM 49.8°F9.9°C 47.9°F8.8°C 93% 14.0 mph SW22.5 kmh SW 20.0 mph32.2 kmh 29.76 in1007.8 mb 0.00 in0.0 mm 0.00 in0.0 mm 0.00 in0.0 mm
03:46 PM 49.8°F9.9°C 47.9°F8.8°C 93% 15.0 mph WSW24.1 kmh WSW 22.0 mph35.4 kmh 29.76 in1007.8 mb 0.00 in0.0 mm 0.00 in0.0 mm 0.00 in0.0 mm
03:45 PM 49.7°F9.8°C 47.8°F8.8°C 93% 15.0 mph W24.1 kmh W 26.0 mph41.8 kmh 29.76 in1007.8 mb 0.00 in0.0 mm 0.00 in0.0 mm 0.00 in0.0 mm
03:44 PM 49.8°F9.9°C 47.9°F8.8°C 93% 18.0 mph SW29.0 kmh SW 28.0 mph45.1 kmh 29.76 in1007.8 mb 0.00 in0.0 mm 0.00 in0.0 mm 0.00 in0.0 mm
03:43 PM 49.8°F9.9°C 47.9°F8.8°C 93% 17.0 mph WSW27.4 kmh WSW 26.0 mph41.8 kmh 29.76 in1007.8 mb 0.00 in0.0 mm 0.00 in0.0 mm 0.00 in0.0 mm
03:42 PM 49.8°F9.9°C 47.9°F8.8°C 93% 19.0 mph WSW30.6 kmh WSW 28.0 mph45.1 kmh 29.76 in1007.8 mb 0.00 in0.0 mm 0.00 in0.0 mm 0.00 in0.0 mm
03:41 PM 49.8°F9.9°C 47.9°F8.8°C 93% 15.0 mph W24.1 kmh W 23.0 mph37.0 kmh 29.77 in1008.1 mb 0.00 in0.0 mm 0.00 in0.0 mm 0.09 in2.3 mm
03:40 PM 49.8°F9.9°C 47.9°F8.8°C 93% 13.0 mph SW20.9 kmh SW 24.0 mph38.6 kmh 29.76 in1007.8 mb 0.00 in0.0 mm 0.00 in0.0 mm 0.09 in2.3 mm
03:39 PM 49.8°F9.9°C 47.9°F8.8°C 93% 16.0 mph WSW25.7 kmh WSW 25.0 mph40.2 kmh 29.76 in1007.8 mb 0.00 in0.0 mm 0.00 in0.0 mm 0.09 in2.3 mm
03:38 PM 49.8°F9.9°C 47.9°F8.8°C 93% 15.0 mph SW24.1 kmh SW 20.0 mph32.2 kmh 29.76 in1007.8 mb 0.00 in0.0 mm 0.00 in0.0 mm 0.00 in0.0 mm
03:37 PM 49.8°F9.9°C 47.9°F8.8°C 93% 19.0 mph WSW30.6 kmh WSW 29.0 mph46.7 kmh 29.77 in1008.1 mb 0.00 in0.0 mm 0.00 in0.0 mm 0.00 in0.0 mm
03:36 PM 49.8°F9.9°C 47.9°F8.8°C 93% 23.0 mph SW37.0 kmh SW 34.0 mph54.7 kmh 29.77 in1008.1 mb 0.00 in0.0 mm 0.00 in0.0 mm 0.00 in0.0 mm
03:35 PM 49.8°F9.9°C 47.9°F8.8°C 93% 17.0 mph WSW27.4 kmh WSW 28.0 mph45.1 kmh 29.77 in1008.1 mb 0.00 in0.0 mm 0.00 in0.0 mm 0.00 in0.0 mm
03:34 PM 49.8°F9.9°C 47.9°F8.8°C 93% 14.0 mph WSW22.5 kmh WSW 20.0 mph32.2 kmh 29.76 in1007.8 mb 0.00 in0.0 mm 0.00 in0.0 mm 0.00 in0.0 mm
03:33 PM 49.8°F9.9°C 47.9°F8.8°C 93% 14.0 mph WSW22.5 kmh WSW 20.0 mph32.2 kmh 29.77 in1008.1 mb 0.00 in0.0 mm 0.00 in0.0 mm 0.09 in2.3 mm
03:32 PM 49.8°F9.9°C 47.9°F8.8°C 93% 14.0 mph SW22.5 kmh SW 26.0 mph41.8 kmh 29.77 in1008.1 mb 0.00 in0.0 mm 0.00 in0.0 mm 0.00 in0.0 mm
03:31 PM 49.9°F9.9°C 48.0°F8.9°C 93% 15.0 mph WSW24.1 kmh WSW 25.0 mph40.2 kmh 29.77 in1008.1 mb 0.00 in0.0 mm 0.00 in0.0 mm 0.00 in0.0 mm
03:30 PM 49.9°F9.9°C 48.0°F8.9°C 93% 16.0 mph WSW25.7 kmh WSW 23.0 mph37.0 kmh 29.77 in1008.1 mb 0.00 in0.0 mm 0.00 in0.0 mm 0.00 in0.0 mm
03:29 PM 49.9°F9.9°C 48.0°F8.9°C 93% 16.0 mph WSW25.7 kmh WSW 26.0 mph41.8 kmh 29.77 in1008.1 mb 0.00 in0.0 mm 0.00 in0.0 mm 0.00 in0.0 mm
03:28 PM 49.9°F9.9°C 48.0°F8.9°C 93% 12.0 mph WSW19.3 kmh WSW 22.0 mph35.4 kmh 29.77 in1008.1 mb 0.00 in0.0 mm 0.00 in0.0 mm 0.00 in0.0 mm
03:27 PM 49.9°F9.9°C 48.0°F8.9°C 93% 16.0 mph SW25.7 kmh SW 23.0 mph37.0 kmh 29.77 in1008.1 mb 0.00 in0.0 mm 0.00 in0.0 mm 0.00 in0.0 mm
03:26 PM 50.0°F10.0°C 47.8°F8.8°C 92% 12.0 mph W19.3 kmh W 17.0 mph27.4 kmh 29.77 in1008.1 mb 0.00 in0.0 mm 0.00 in0.0 mm 0.00 in0.0 mm
03:25 PM 50.0°F10.0°C 47.8°F8.8°C 92% 15.0 mph WSW24.1 kmh WSW 21.0 mph33.8 kmh 29.77 in1008.1 mb 0.00 in0.0 mm 0.00 in0.0 mm 0.00 in0.0 mm
03:24 PM 50.0°F10.0°C 47.8°F8.8°C 92% 15.0 mph SW24.1 kmh SW 28.0 mph45.1 kmh 29.77 in1008.1 mb 0.00 in0.0 mm 0.00 in0.0 mm 0.00 in0.0 mm
03:23 PM 50.1°F10.1°C 47.9°F8.8°C 92% 10.0 mph WSW16.1 kmh WSW 17.0 mph27.4 kmh 29.77 in1008.1 mb 0.00 in0.0 mm 0.00 in0.0 mm 0.00 in0.0 mm
03:22 PM 50.1°F10.1°C 47.9°F8.8°C 92% 15.0 mph WSW24.1 kmh WSW 29.0 mph46.7 kmh 29.78 in1008.5 mb 0.00 in0.0 mm 0.00 in0.0 mm 0.00 in0.0 mm
03:21 PM 50.1°F10.1°C 47.9°F8.8°C 92% 18.0 mph WSW29.0 kmh WSW 31.0 mph49.9 kmh 29.77 in1008.1 mb 0.00 in0.0 mm 0.00 in0.0 mm 0.00 in0.0 mm
03:20 PM 50.1°F10.1°C 47.9°F8.8°C 92% 14.0 mph SW22.5 kmh SW 22.0 mph35.4 kmh 29.77 in1008.1 mb 0.00 in0.0 mm 0.00 in0.0 mm 0.00 in0.0 mm
03:19 PM 50.2°F10.1°C 48.0°F8.9°C 92% 19.0 mph WSW30.6 kmh WSW 31.0 mph49.9 kmh 29.77 in1008.1 mb 0.00 in0.0 mm 0.00 in0.0 mm 0.00 in0.0 mm
03:18 PM 50.2°F10.1°C 48.0°F8.9°C 92% 15.0 mph WSW24.1 kmh WSW 23.0 mph37.0 kmh 29.77 in1008.1 mb 0.00 in0.0 mm 0.00 in0.0 mm 0.00 in0.0 mm
03:17 PM 50.2°F10.1°C 48.0°F8.9°C 92% 16.0 mph W25.7 kmh W 26.0 mph41.8 kmh 29.77 in1008.1 mb 0.00 in0.0 mm 0.00 in0.0 mm 0.00 in0.0 mm
03:16 PM 50.3°F10.2°C 47.8°F8.8°C 91% 17.0 mph WSW27.4 kmh WSW 23.0 mph37.0 kmh 29.77 in1008.1 mb 0.00 in0.0 mm 0.00 in0.0 mm 0.00 in0.0 mm
03:15 PM 50.3°F10.2°C 47.8°F8.8°C 91% 20.0 mph WSW32.2 kmh WSW 30.0 mph48.3 kmh 29.77 in1008.1 mb 0.00 in0.0 mm 0.00 in0.0 mm 0.00 in0.0 mm
03:14 PM 50.4°F10.2°C 47.9°F8.8°C 91% 15.0 mph WSW24.1 kmh WSW 28.0 mph45.1 kmh 29.77 in1008.1 mb 0.00 in0.0 mm 0.00 in0.0 mm 0.09 in2.3 mm
03:13 PM 50.4°F10.2°C 47.9°F8.8°C 91% 16.0 mph WSW25.7 kmh WSW 31.0 mph49.9 kmh 29.77 in1008.1 mb 0.00 in0.0 mm 0.00 in0.0 mm 0.00 in0.0 mm
03:12 PM 50.5°F10.3°C 48.0°F8.9°C 91% 14.0 mph WSW22.5 kmh WSW 26.0 mph41.8 kmh 29.77 in1008.1 mb 0.00 in0.0 mm 0.00 in0.0 mm 0.00 in0.0 mm
03:11 PM 50.5°F10.3°C 48.0°F8.9°C 91% 14.0 mph WSW22.5 kmh WSW 28.0 mph45.1 kmh 29.77 in1008.1 mb 0.00 in0.0 mm 0.00 in0.0 mm 0.00 in0.0 mm
03:10 PM 50.5°F10.3°C 48.0°F8.9°C 91% 13.0 mph W20.9 kmh W 20.0 mph32.2 kmh 29.77 in1008.1 mb 0.00 in0.0 mm 0.00 in0.0 mm 0.09 in2.3 mm
03:09 PM 50.6°F10.3°C 48.1°F8.9°C 91% 13.0 mph W20.9 kmh W 23.0 mph37.0 kmh 29.77 in1008.1 mb 0.00 in0.0 mm 0.00 in0.0 mm 0.09 in2.3 mm
03:08 PM 50.7°F10.4°C 47.9°F8.8°C 90% 19.0 mph WSW30.6 kmh WSW 30.0 mph48.3 kmh 29.76 in1007.8 mb 0.00 in0.0 mm 0.00 in0.0 mm 0.09 in2.3 mm
03:07 PM 50.7°F10.4°C 47.9°F8.8°C 90% 18.0 mph WSW29.0 kmh WSW 30.0 mph48.3 kmh 29.78 in1008.5 mb 0.00 in0.0 mm 0.00 in0.0 mm 0.00 in0.0 mm
03:06 PM 50.8°F10.4°C 48.0°F8.9°C 90% 14.0 mph WSW22.5 kmh WSW 19.0 mph30.6 kmh 29.78 in1008.5 mb 0.00 in0.0 mm 0.00 in0.0 mm 0.00 in0.0 mm
03:05 PM 50.8°F10.4°C 48.0°F8.9°C 90% 13.0 mph W20.9 kmh W 18.0 mph29.0 kmh 29.78 in1008.5 mb 0.00 in0.0 mm 0.00 in0.0 mm 0.00 in0.0 mm
03:04 PM 50.9°F10.5°C 48.1°F8.9°C 90% 14.0 mph WSW22.5 kmh WSW 25.0 mph40.2 kmh 29.77 in1008.1 mb 0.00 in0.0 mm 0.00 in0.0 mm 0.00 in0.0 mm
03:03 PM 50.9°F10.5°C 48.1°F8.9°C 90% 14.0 mph WSW22.5 kmh WSW 22.0 mph35.4 kmh 29.77 in1008.1 mb 0.00 in0.0 mm 0.00 in0.0 mm 0.00 in0.0 mm
03:02 PM 51.0°F10.6°C 48.2°F9.0°C 90% 14.0 mph WSW22.5 kmh WSW 26.0 mph41.8 kmh 29.78 in1008.5 mb 0.00 in0.0 mm 0.00 in0.0 mm 0.00 in0.0 mm
03:01 PM 51.0°F10.6°C 47.9°F8.8°C 89% 13.0 mph WSW20.9 kmh WSW 27.0 mph43.5 kmh 29.78 in1008.5 mb 0.00 in0.0 mm 0.00 in0.0 mm 0.00 in0.0 mm
03:00 PM 51.1°F10.6°C 48.0°F8.9°C 89% 15.0 mph WSW24.1 kmh WSW 22.0 mph35.4 kmh 29.77 in1008.1 mb 0.00 in0.0 mm 0.00 in0.0 mm 0.00 in0.0 mm
02:59 PM 51.1°F10.6°C 48.0°F8.9°C 89% 13.0 mph W20.9 kmh W 23.0 mph37.0 kmh 29.78 in1008.5 mb 0.00 in0.0 mm 0.00 in0.0 mm 0.00 in0.0 mm
02:58 PM 51.1°F10.6°C 48.0°F8.9°C 89% 15.0 mph SW24.1 kmh SW 25.0 mph40.2 kmh 29.78 in1008.5 mb 0.00 in0.0 mm 0.00 in0.0 mm 0.00 in0.0 mm
02:57 PM 51.1°F10.6°C 48.0°F8.9°C 89% 15.0 mph WSW24.1 kmh WSW 24.0 mph38.6 kmh 29.78 in1008.5 mb 0.00 in0.0 mm 0.00 in0.0 mm 0.00 in0.0 mm
02:56 PM 51.2°F10.7°C 48.1°F8.9°C 89% 14.0 mph WSW22.5 kmh WSW 24.0 mph38.6 kmh 29.78 in1008.5 mb 0.00 in0.0 mm 0.00 in0.0 mm 0.00 in0.0 mm
02:55 PM 51.2°F10.7°C 48.1°F8.9°C 89% 17.0 mph W27.4 kmh W 30.0 mph48.3 kmh 29.78 in1008.5 mb 0.00 in0.0 mm 0.00 in0.0 mm 0.00 in0.0 mm
02:54 PM 51.2°F10.7°C 48.1°F8.9°C 89% 17.0 mph WSW27.4 kmh WSW 28.0 mph45.1 kmh 29.78 in1008.5 mb 0.00 in0.0 mm 0.00 in0.0 mm 0.00 in0.0 mm
02:53 PM 51.2°F10.7°C 48.1°F8.9°C 89% 23.0 mph W37.0 kmh W 30.0 mph48.3 kmh 29.78 in1008.5 mb 0.00 in0.0 mm 0.00 in0.0 mm 0.09 in2.3 mm
02:52 PM 51.2°F10.7°C 48.1°F8.9°C 89% 16.0 mph WSW25.7 kmh WSW 25.0 mph40.2 kmh 29.78 in1008.5 mb 0.00 in0.0 mm 0.00 in0.0 mm 0.00 in0.0 mm
02:51 PM 51.3°F10.7°C 48.2°F9.0°C 89% 19.0 mph WSW30.6 kmh WSW 29.0 mph46.7 kmh 29.78 in1008.5 mb 0.00 in0.0 mm 0.00 in0.0 mm 0.00 in0.0 mm
02:50 PM 51.3°F10.7°C 48.2°F9.0°C 89% 20.0 mph WSW32.2 kmh WSW 33.0 mph53.1 kmh 29.78 in1008.5 mb 0.00 in0.0 mm 0.00 in0.0 mm 0.00 in0.0 mm
02:49 PM 51.3°F10.7°C 48.2°F9.0°C 89% 15.0 mph WSW24.1 kmh WSW 24.0 mph38.6 kmh 29.79 in1008.8 mb 0.00 in0.0 mm 0.00 in0.0 mm 0.00 in0.0 mm
02:48 PM 51.4°F10.8°C 48.0°F8.9°C 88% 16.0 mph WSW25.7 kmh WSW 30.0 mph48.3 kmh 29.78 in1008.5 mb 0.00 in0.0 mm 0.00 in0.0 mm 0.00 in0.0 mm
02:47 PM 51.4°F10.8°C 48.0°F8.9°C 88% 15.0 mph WSW24.1 kmh WSW 24.0 mph38.6 kmh 29.78 in1008.5 mb 0.00 in0.0 mm 0.00 in0.0 mm 0.00 in0.0 mm
02:46 PM 51.4°F10.8°C 48.0°F8.9°C 88% 16.0 mph WSW25.7 kmh WSW 27.0 mph43.5 kmh 29.78 in1008.5 mb 0.00 in0.0 mm 0.00 in0.0 mm 0.00 in0.0 mm
02:45 PM 51.5°F10.8°C 48.1°F8.9°C 88% 23.0 mph WSW37.0 kmh WSW 37.0 mph59.5 kmh 29.78 in1008.5 mb 0.00 in0.0 mm 0.00 in0.0 mm 0.09 in2.3 mm
02:44 PM 51.5°F10.8°C 48.1°F8.9°C 88% 15.0 mph WSW24.1 kmh WSW 27.0 mph43.5 kmh 29.79 in1008.8 mb 0.00 in0.0 mm 0.00 in0.0 mm 0.00 in0.0 mm
02:43 PM 51.5°F10.8°C 48.1°F8.9°C 88% 13.0 mph W20.9 kmh W 18.0 mph29.0 kmh 29.78 in1008.5 mb 0.00 in0.0 mm 0.00 in0.0 mm 0.00 in0.0 mm
02:42 PM 51.5°F10.8°C 48.1°F8.9°C 88% 16.0 mph SW25.7 kmh SW 25.0 mph40.2 kmh 29.78 in1008.5 mb 0.00 in0.0 mm 0.00 in0.0 mm 0.00 in0.0 mm
02:41 PM 51.5°F10.8°C 48.1°F8.9°C 88% 13.0 mph W20.9 kmh W 26.0 mph41.8 kmh 29.78 in1008.5 mb 0.00 in0.0 mm 0.00 in0.0 mm 0.00 in0.0 mm
02:40 PM 51.6°F10.9°C 48.2°F9.0°C 88% 18.0 mph WSW29.0 kmh WSW 27.0 mph43.5 kmh 29.79 in1008.8 mb 0.00 in0.0 mm 0.00 in0.0 mm 0.00 in0.0 mm
02:39 PM 51.6°F10.9°C 48.2°F9.0°C 88% 17.0 mph SW27.4 kmh SW 29.0 mph46.7 kmh 29.79 in1008.8 mb 0.00 in0.0 mm 0.00 in0.0 mm 0.00 in0.0 mm
02:38 PM 51.7°F10.9°C 48.3°F9.1°C 88% 17.0 mph WSW27.4 kmh WSW 27.0 mph43.5 kmh 29.78 in1008.5 mb 0.00 in0.0 mm 0.00 in0.0 mm 0.00 in0.0 mm
02:37 PM 51.7°F10.9°C 48.3°F9.1°C 88% 18.0 mph SW29.0 kmh SW 25.0 mph40.2 kmh 29.79 in1008.8 mb 0.00 in0.0 mm 0.00 in0.0 mm 0.00 in0.0 mm
02:36 PM 51.7°F10.9°C 48.0°F8.9°C 87% 16.0 mph SW25.7 kmh SW 22.0 mph35.4 kmh 29.79 in1008.8 mb 0.00 in0.0 mm 0.00 in0.0 mm 0.00 in0.0 mm
02:35 PM 51.8°F11.0°C 48.1°F8.9°C 87% 17.0 mph SW27.4 kmh SW 30.0 mph48.3 kmh 29.78 in1008.5 mb 0.00 in0.0 mm 0.00 in0.0 mm 0.00 in0.0 mm
02:34 PM 51.8°F11.0°C 48.1°F8.9°C 87% 20.0 mph WSW32.2 kmh WSW 27.0 mph43.5 kmh 29.78 in1008.5 mb 0.00 in0.0 mm 0.00 in0.0 mm 0.09 in2.3 mm
02:33 PM 51.8°F11.0°C 48.1°F8.9°C 87% 17.0 mph WSW27.4 kmh WSW 28.0 mph45.1 kmh 29.79 in1008.8 mb 0.00 in0.0 mm 0.00 in0.0 mm 0.00 in0.0 mm
02:32 PM 51.9°F11.1°C 48.2°F9.0°C 87% 20.0 mph WSW32.2 kmh WSW 31.0 mph49.9 kmh 29.79 in1008.8 mb 0.00 in0.0 mm 0.00 in0.0 mm 0.00 in0.0 mm
02:31 PM 51.9°F11.1°C 48.2°F9.0°C 87% 21.0 mph SW33.8 kmh SW 29.0 mph46.7 kmh 29.79 in1008.8 mb 0.00 in0.0 mm 0.00 in0.0 mm 0.00 in0.0 mm
02:30 PM 51.9°F11.1°C 48.2°F9.0°C 87% 14.0 mph SW22.5 kmh SW 25.0 mph40.2 kmh 29.79 in1008.8 mb 0.00 in0.0 mm 0.00 in0.0 mm 0.00 in0.0 mm
02:29 PM 51.9°F11.1°C 48.2°F9.0°C 87% 12.0 mph WSW19.3 kmh WSW 28.0 mph45.1 kmh 29.79 in1008.8 mb 0.00 in0.0 mm 0.00 in0.0 mm 0.00 in0.0 mm
02:28 PM 52.0°F11.1°C 48.3°F9.1°C 87% 14.0 mph W22.5 kmh W 19.0 mph30.6 kmh 29.79 in1008.8 mb 0.00 in0.0 mm 0.00 in0.0 mm 0.00 in0.0 mm
02:27 PM 52.0°F11.1°C 48.3°F9.1°C 87% 17.0 mph WSW27.4 kmh WSW 28.0 mph45.1 kmh 29.78 in1008.5 mb 0.00 in0.0 mm 0.00 in0.0 mm 0.00 in0.0 mm
02:26 PM 52.0°F11.1°C 48.3°F9.1°C 87% 14.0 mph SW22.5 kmh SW 25.0 mph40.2 kmh 29.79 in1008.8 mb 0.00 in0.0 mm 0.00 in0.0 mm 0.00 in0.0 mm
02:25 PM 52.0°F11.1°C 48.3°F9.1°C 87% 19.0 mph W30.6 kmh W 28.0 mph45.1 kmh 29.78 in1008.5 mb 0.00 in0.0 mm 0.00 in0.0 mm 0.00 in0.0 mm
02:24 PM 52.0°F11.1°C 48.3°F9.1°C 87% 19.0 mph SW30.6 kmh SW 31.0 mph49.9 kmh 29.79 in1008.8 mb 0.00 in0.0 mm 0.00 in0.0 mm 0.00 in0.0 mm
02:23 PM 52.0°F11.1°C 48.6°F9.2°C 88% 16.0 mph W25.7 kmh W 33.0 mph53.1 kmh 29.78 in1008.5 mb 0.00 in0.0 mm 0.00 in0.0 mm 0.00 in0.0 mm
02:22 PM 51.9°F11.1°C 48.5°F9.2°C 88% 18.0 mph SW29.0 kmh SW 28.0 mph45.1 kmh 29.79 in1008.8 mb 0.00 in0.0 mm 0.00 in0.0 mm 0.00 in0.0 mm
02:21 PM 51.9°F11.1°C 48.5°F9.2°C 88% 17.0 mph WSW27.4 kmh WSW 43.0 mph69.2 kmh 29.78 in1008.5 mb 0.00 in0.0 mm 0.00 in0.0 mm 0.00 in0.0 mm
02:20 PM 51.9°F11.1°C 48.5°F9.2°C 88% 20.0 mph SW32.2 kmh SW 43.0 mph69.2 kmh 29.79 in1008.8 mb 0.00 in0.0 mm 0.00 in0.0 mm 0.00 in0.0 mm
02:19 PM 51.8°F11.0°C 48.4°F9.1°C 88% 13.0 mph WSW20.9 kmh WSW 22.0 mph35.4 kmh 29.79 in1008.8 mb 0.00 in0.0 mm 0.00 in0.0 mm 0.09 in2.3 mm
02:18 PM 51.8°F11.0°C 48.4°F9.1°C 88% 16.0 mph W25.7 kmh W 32.0 mph51.5 kmh 29.79 in1008.8 mb 0.00 in0.0 mm 0.00 in0.0 mm 0.00 in0.0 mm
02:17 PM 51.7°F10.9°C 48.3°F9.1°C 88% 18.0 mph WSW29.0 kmh WSW 30.0 mph48.3 kmh 29.79 in1008.8 mb 0.00 in0.0 mm 0.00 in0.0 mm 0.00 in0.0 mm
02:16 PM 51.7°F10.9°C 48.3°F9.1°C 88% 13.0 mph WSW20.9 kmh WSW 22.0 mph35.4 kmh 29.79 in1008.8 mb 0.00 in0.0 mm 0.00 in0.0 mm 0.09 in2.3 mm
02:15 PM 51.6°F10.9°C 48.2°F9.0°C 88% 21.0 mph WSW33.8 kmh WSW 32.0 mph51.5 kmh 29.79 in1008.8 mb 0.00 in0.0 mm 0.00 in0.0 mm 0.09 in2.3 mm
02:14 PM 51.6°F10.9°C 48.2°F9.0°C 88% 20.0 mph WSW32.2 kmh WSW 31.0 mph49.9 kmh 29.79 in1008.8 mb 0.00 in0.0 mm 0.00 in0.0 mm 0.00 in0.0 mm
02:13 PM 51.6°F10.9°C 48.2°F9.0°C 88% 16.0 mph SW25.7 kmh SW 28.0 mph45.1 kmh 29.79 in1008.8 mb 0.00 in0.0 mm 0.00 in0.0 mm 0.00 in0.0 mm
02:12 PM 51.6°F10.9°C 48.2°F9.0°C 88% 18.0 mph SW29.0 kmh SW 26.0 mph41.8 kmh 29.79 in1008.8 mb 0.00 in0.0 mm 0.00 in0.0 mm 0.09 in2.3 mm
02:11 PM 51.6°F10.9°C 48.2°F9.0°C 88% 18.0 mph WSW29.0 kmh WSW 28.0 mph45.1 kmh 29.79 in1008.8 mb 0.00 in0.0 mm 0.00 in0.0 mm 0.00 in0.0 mm
02:10 PM 51.6°F10.9°C 48.2°F9.0°C 88% 19.0 mph WSW30.6 kmh WSW 28.0 mph45.1 kmh 29.79 in1008.8 mb 0.00 in0.0 mm 0.00 in0.0 mm 0.00 in0.0 mm
02:09 PM 51.6°F10.9°C 48.2°F9.0°C 88% 19.0 mph WSW30.6 kmh WSW 30.0 mph48.3 kmh 29.80 in1009.1 mb 0.00 in0.0 mm 0.00 in0.0 mm 0.00 in0.0 mm
02:08 PM 51.6°F10.9°C 48.2°F9.0°C 88% 18.0 mph WSW29.0 kmh WSW 29.0 mph46.7 kmh 29.79 in1008.8 mb 0.00 in0.0 mm 0.00 in0.0 mm 0.00 in0.0 mm
02:07 PM 51.7°F10.9°C 48.3°F9.1°C 88% 21.0 mph SW33.8 kmh SW 40.0 mph64.4 kmh 29.80 in1009.1 mb 0.00 in0.0 mm 0.00 in0.0 mm 0.00 in0.0 mm
02:06 PM 51.7°F10.9°C 48.3°F9.1°C 88% 18.0 mph WSW29.0 kmh WSW 40.0 mph64.4 kmh 29.79 in1008.8 mb 0.00 in0.0 mm 0.00 in0.0 mm 0.00 in0.0 mm
02:05 PM 51.7°F10.9°C 48.3°F9.1°C 88% 20.0 mph WSW32.2 kmh WSW 32.0 mph51.5 kmh 29.79 in1008.8 mb 0.00 in0.0 mm 0.00 in0.0 mm 0.00 in0.0 mm
02:04 PM 51.8°F11.0°C 48.4°F9.1°C 88% 20.0 mph SW32.2 kmh SW 29.0 mph46.7 kmh 29.80 in1009.1 mb 0.00 in0.0 mm 0.00 in0.0 mm 0.00 in0.0 mm
02:03 PM 51.9°F11.1°C 48.5°F9.2°C 88% 15.0 mph W24.1 kmh W 22.0 mph35.4 kmh 29.80 in1009.1 mb 0.00 in0.0 mm 0.00 in0.0 mm 0.00 in0.0 mm
02:02 PM 51.9°F11.1°C 48.2°F9.0°C 87% 20.0 mph SW32.2 kmh SW 26.0 mph41.8 kmh 29.80 in1009.1 mb 0.00 in0.0 mm 0.00 in0.0 mm 0.00 in0.0 mm
02:01 PM 52.0°F11.1°C 48.3°F9.1°C 87% 16.0 mph W25.7 kmh W 21.0 mph33.8 kmh 29.80 in1009.1 mb 0.00 in0.0 mm 0.00 in0.0 mm 0.00 in0.0 mm
02:00 PM 52.1°F11.2°C 48.3°F9.1°C 87% 17.0 mph WSW27.4 kmh WSW 25.0 mph40.2 kmh 29.80 in1009.1 mb 0.00 in0.0 mm 0.00 in0.0 mm 0.00 in0.0 mm
01:59 PM 52.1°F11.2°C 48.3°F9.1°C 87% 13.0 mph WSW20.9 kmh WSW 17.0 mph27.4 kmh 29.80 in1009.1 mb 0.00 in0.0 mm 0.00 in0.0 mm 0.00 in0.0 mm
01:58 PM 52.1°F11.2°C 48.3°F9.1°C 87% 16.0 mph SW25.7 kmh SW 27.0 mph43.5 kmh 29.80 in1009.1 mb 0.00 in0.0 mm 0.00 in0.0 mm 0.00 in0.0 mm
01:57 PM 52.1°F11.2°C 48.3°F9.1°C 87% 21.0 mph WSW33.8 kmh WSW 34.0 mph54.7 kmh 29.80 in1009.1 mb 0.00 in0.0 mm 0.00 in0.0 mm 0.00 in0.0 mm
01:56 PM 52.2°F11.2°C 48.4°F9.1°C 87% 17.0 mph WSW27.4 kmh WSW 32.0 mph51.5 kmh 29.80 in1009.1 mb 0.00 in0.0 mm 0.00 in0.0 mm 0.00 in0.0 mm
01:55 PM 52.2°F11.2°C 48.4°F9.1°C 87% 16.0 mph SW25.7 kmh SW 30.0 mph48.3 kmh 29.80 in1009.1 mb 0.00 in0.0 mm 0.00 in0.0 mm 0.00 in0.0 mm
01:54 PM 52.2°F11.2°C 48.4°F9.1°C 87% 19.0 mph SW30.6 kmh SW 29.0 mph46.7 kmh 29.80 in1009.1 mb 0.00 in0.0 mm 0.00 in0.0 mm 0.00 in0.0 mm
01:53 PM 52.2°F11.2°C 48.4°F9.1°C 87% 18.0 mph WSW29.0 kmh WSW 32.0 mph51.5 kmh 29.81 in1009.5 mb 0.00 in0.0 mm 0.00 in0.0 mm 0.00 in0.0 mm
01:52 PM 52.2°F11.2°C 48.4°F9.1°C 87% 16.0 mph WSW25.7 kmh WSW 28.0 mph45.1 kmh 29.81 in1009.5 mb 0.00 in0.0 mm 0.00 in0.0 mm 0.00 in0.0 mm
01:51 PM 52.2°F11.2°C 48.4°F9.1°C 87% 20.0 mph SW32.2 kmh SW 30.0 mph48.3 kmh 29.81 in1009.5 mb 0.00 in0.0 mm 0.00 in0.0 mm 0.00 in0.0 mm
01:50 PM 52.2°F11.2°C 48.4°F9.1°C 87% 20.0 mph SW32.2 kmh SW 36.0 mph57.9 kmh 29.81 in1009.5 mb 0.00 in0.0 mm 0.00 in0.0 mm 0.00 in0.0 mm
01:49 PM 52.2°F11.2°C 48.4°F9.1°C 87% 14.0 mph WSW22.5 kmh WSW 24.0 mph38.6 kmh 29.81 in1009.5 mb 0.00 in0.0 mm 0.00 in0.0 mm 0.09 in2.3 mm
01:48 PM 52.3°F11.3°C 48.5°F9.2°C 87% 19.0 mph WSW30.6 kmh WSW 27.0 mph43.5 kmh 29.81 in1009.5 mb 0.00 in0.0 mm 0.00 in0.0 mm 0.00 in0.0 mm
01:47 PM 52.3°F11.3°C 48.5°F9.2°C 87% 18.0 mph WSW29.0 kmh WSW 28.0 mph45.1 kmh 29.81 in1009.5 mb 0.00 in0.0 mm 0.00 in0.0 mm 0.00 in0.0 mm
01:46 PM 52.3°F11.3°C 48.5°F9.2°C 87% 15.0 mph WSW24.1 kmh WSW 27.0 mph43.5 kmh 29.81 in1009.5 mb 0.00 in0.0 mm 0.00 in0.0 mm 0.00 in0.0 mm
01:45 PM 52.3°F11.3°C 48.5°F9.2°C 87% 13.0 mph W20.9 kmh W 19.0 mph30.6 kmh 29.81 in1009.5 mb 0.00 in0.0 mm 0.00 in0.0 mm 0.00 in0.0 mm
01:44 PM 52.4°F11.3°C 48.6°F9.2°C 87% 14.0 mph SW22.5 kmh SW 21.0 mph33.8 kmh 29.81 in1009.5 mb 0.00 in0.0 mm 0.00 in0.0 mm 0.00 in0.0 mm
01:43 PM 52.4°F11.3°C 48.6°F9.2°C 87% 20.0 mph SW32.2 kmh SW 30.0 mph48.3 kmh 29.81 in1009.5 mb 0.00 in0.0 mm 0.00 in0.0 mm 0.00 in0.0 mm
01:42 PM 52.4°F11.3°C 48.3°F9.1°C 86% 14.0 mph WSW22.5 kmh WSW 20.0 mph32.2 kmh 29.81 in1009.5 mb 0.00 in0.0 mm 0.00 in0.0 mm 0.09 in2.3 mm
01:41 PM 52.5°F11.4°C 48.7°F9.3°C 87% 13.0 mph WSW20.9 kmh WSW 21.0 mph33.8 kmh 29.82 in1009.8 mb 0.00 in0.0 mm 0.00 in0.0 mm 0.00 in0.0 mm
01:40 PM 52.5°F11.4°C 48.7°F9.3°C 87% 14.0 mph SW22.5 kmh SW 23.0 mph37.0 kmh 29.82 in1009.8 mb 0.00 in0.0 mm 0.00 in0.0 mm 0.00 in0.0 mm
01:39 PM 52.6°F11.4°C 48.8°F9.3°C 87% 17.0 mph WSW27.4 kmh WSW 26.0 mph41.8 kmh 29.81 in1009.5 mb 0.00 in0.0 mm 0.00 in0.0 mm 0.00 in0.0 mm
01:38 PM 52.6°F11.4°C 48.8°F9.3°C 87% 18.0 mph WSW29.0 kmh WSW 39.0 mph62.8 kmh 29.82 in1009.8 mb 0.00 in0.0 mm 0.00 in0.0 mm 0.00 in0.0 mm
01:37 PM 52.7°F11.5°C 48.9°F9.4°C 87% 19.0 mph SW30.6 kmh SW 40.0 mph64.4 kmh 29.82 in1009.8 mb 0.00 in0.0 mm 0.00 in0.0 mm 0.00 in0.0 mm
01:36 PM 52.7°F11.5°C 48.9°F9.4°C 87% 15.0 mph WSW24.1 kmh WSW 23.0 mph37.0 kmh 29.82 in1009.8 mb 0.00 in0.0 mm 0.00 in0.0 mm 0.09 in2.3 mm
01:35 PM 52.7°F11.5°C 48.9°F9.4°C 87% 14.0 mph WSW22.5 kmh WSW 26.0 mph41.8 kmh 29.82 in1009.8 mb 0.00 in0.0 mm 0.00 in0.0 mm 0.09 in2.3 mm
01:34 PM 52.7°F11.5°C 48.9°F9.4°C 87% 14.0 mph WSW22.5 kmh WSW 20.0 mph32.2 kmh 29.82 in1009.8 mb 0.00 in0.0 mm 0.00 in0.0 mm 0.09 in2.3 mm
01:33 PM 52.7°F11.5°C 48.9°F9.4°C 87% 18.0 mph WSW29.0 kmh WSW 25.0 mph40.2 kmh 29.82 in1009.8 mb 0.00 in0.0 mm 0.00 in0.0 mm 0.09 in2.3 mm
01:32 PM 52.7°F11.5°C 48.9°F9.4°C 87% 15.0 mph WSW24.1 kmh WSW 25.0 mph40.2 kmh 29.82 in1009.8 mb 0.00 in0.0 mm 0.00 in0.0 mm 0.09 in2.3 mm
01:31 PM 52.7°F11.5°C 48.9°F9.4°C 87% 17.0 mph WSW27.4 kmh WSW 25.0 mph40.2 kmh 29.82 in1009.8 mb 0.00 in0.0 mm 0.00 in0.0 mm 0.09 in2.3 mm
01:30 PM 52.7°F11.5°C 49.2°F9.6°C 88% 15.0 mph WSW24.1 kmh WSW 27.0 mph43.5 kmh 29.82 in1009.8 mb 0.00 in0.0 mm 0.00 in0.0 mm 0.00 in0.0 mm
01:29 PM 52.7°F11.5°C 49.2°F9.6°C 88% 16.0 mph SW25.7 kmh SW 25.0 mph40.2 kmh 29.82 in1009.8 mb 0.00 in0.0 mm 0.00 in0.0 mm 0.00 in0.0 mm
01:28 PM 52.6°F11.4°C 49.1°F9.5°C 88% 17.0 mph WSW27.4 kmh WSW 26.0 mph41.8 kmh 29.82 in1009.8 mb 0.00 in0.0 mm 0.00 in0.0 mm 0.09 in2.3 mm
01:27 PM 52.6°F11.4°C 49.1°F9.5°C 88% 16.0 mph SW25.7 kmh SW 23.0 mph37.0 kmh 29.82 in1009.8 mb 0.00 in0.0 mm 0.00 in0.0 mm 0.09 in2.3 mm
01:26 PM 52.5°F11.4°C 49.0°F9.4°C 88% 17.0 mph SW27.4 kmh SW 23.0 mph37.0 kmh 29.82 in1009.8 mb 0.00 in0.0 mm 0.00 in0.0 mm 0.00 in0.0 mm
01:25 PM 52.5°F11.4°C 49.0°F9.4°C 88% 16.0 mph WSW25.7 kmh WSW 28.0 mph45.1 kmh 29.83 in1010.2 mb 0.00 in0.0 mm 0.00 in0.0 mm 0.00 in0.0 mm
01:24 PM 52.4°F11.3°C 49.0°F9.4°C 88% 18.0 mph WSW29.0 kmh WSW 26.0 mph41.8 kmh 29.82 in1009.8 mb 0.00 in0.0 mm 0.00 in0.0 mm 0.09 in2.3 mm
01:23 PM 52.4°F11.3°C 49.3°F9.6°C 89% 20.0 mph WSW32.2 kmh WSW 27.0 mph43.5 kmh 29.83 in1010.2 mb 0.00 in0.0 mm 0.00 in0.0 mm 0.00 in0.0 mm
01:22 PM 52.4°F11.3°C 49.0°F9.4°C 88% 19.0 mph WSW30.6 kmh WSW 29.0 mph46.7 kmh 29.83 in1010.2 mb 0.00 in0.0 mm 0.00 in0.0 mm 0.00 in0.0 mm
01:21 PM 52.4°F11.3°C 49.3°F9.6°C 89% 14.0 mph SW22.5 kmh SW 24.0 mph38.6 kmh 29.83 in1010.2 mb 0.00 in0.0 mm 0.00 in0.0 mm 0.00 in0.0 mm
01:20 PM 52.4°F11.3°C 49.3°F9.6°C 89% 13.0 mph WSW20.9 kmh WSW 20.0 mph32.2 kmh 29.83 in1010.2 mb 0.00 in0.0 mm 0.00 in0.0 mm 0.09 in2.3 mm
01:19 PM 52.4°F11.3°C 49.3°F9.6°C 89% 15.0 mph WSW24.1 kmh WSW 23.0 mph37.0 kmh 29.83 in1010.2 mb 0.00 in0.0 mm 0.00 in0.0 mm 0.00 in0.0 mm
01:18 PM 52.3°F11.3°C 49.2°F9.6°C 89% 10.0 mph WSW16.1 kmh WSW 14.0 mph22.5 kmh 29.84 in1010.5 mb 0.00 in0.0 mm 0.00 in0.0 mm 0.00 in0.0 mm
01:17 PM 52.3°F11.3°C 49.2°F9.6°C 89% 16.0 mph SW25.7 kmh SW 25.0 mph40.2 kmh 29.84 in1010.5 mb 0.00 in0.0 mm 0.00 in0.0 mm 0.00 in0.0 mm
01:16 PM 52.3°F11.3°C 49.2°F9.6°C 89% 16.0 mph WSW25.7 kmh WSW 23.0 mph37.0 kmh 29.84 in1010.5 mb 0.00 in0.0 mm 0.00 in0.0 mm 0.00 in0.0 mm
01:15 PM 52.3°F11.3°C 49.2°F9.6°C 89% 16.0 mph WSW25.7 kmh WSW 20.0 mph32.2 kmh 29.83 in1010.2 mb 0.00 in0.0 mm 0.00 in0.0 mm 0.00 in0.0 mm
01:14 PM 52.3°F11.3°C 49.2°F9.6°C 89% 19.0 mph WSW30.6 kmh WSW 33.0 mph53.1 kmh 29.83 in1010.2 mb 0.00 in0.0 mm 0.00 in0.0 mm 0.00 in0.0 mm
01:13 PM 52.3°F11.3°C 49.2°F9.6°C 89% 17.0 mph SW27.4 kmh SW 26.0 mph41.8 kmh 29.83 in1010.2 mb 0.00 in0.0 mm 0.00 in0.0 mm 0.00 in0.0 mm
01:12 PM 52.4°F11.3°C 49.3°F9.6°C 89% 17.0 mph WSW27.4 kmh WSW 25.0 mph40.2 kmh 29.84 in1010.5 mb 0.00 in0.0 mm 0.00 in0.0 mm 0.00 in0.0 mm
01:11 PM 52.4°F11.3°C 49.3°F9.6°C 89% 16.0 mph WSW25.7 kmh WSW 35.0 mph56.3 kmh 29.84 in1010.5 mb 0.00 in0.0 mm 0.00 in0.0 mm 0.00 in0.0 mm
01:10 PM 52.4°F11.3°C 49.3°F9.6°C 89% 18.0 mph WSW29.0 kmh WSW 35.0 mph56.3 kmh 29.83 in1010.2 mb 0.00 in0.0 mm 0.00 in0.0 mm 0.00 in0.0 mm
01:09 PM 52.4°F11.3°C 49.6°F9.8°C 90% 19.0 mph WSW30.6 kmh WSW 23.0 mph37.0 kmh 29.84 in1010.5 mb 0.00 in0.0 mm 0.00 in0.0 mm 0.00 in0.0 mm
01:08 PM 52.4°F11.3°C 49.6°F9.8°C 90% 17.0 mph SW27.4 kmh SW 28.0 mph45.1 kmh 29.84 in1010.5 mb 0.00 in0.0 mm 0.00 in0.0 mm 0.00 in0.0 mm
01:07 PM 52.4°F11.3°C 49.6°F9.8°C 90% 16.0 mph WSW25.7 kmh WSW 27.0 mph43.5 kmh 29.84 in1010.5 mb 0.00 in0.0 mm 0.00 in0.0 mm 0.00 in0.0 mm
01:06 PM 52.4°F11.3°C 49.6°F9.8°C 90% 16.0 mph SW25.7 kmh SW 29.0 mph46.7 kmh 29.84 in1010.5 mb 0.00 in0.0 mm 0.00 in0.0 mm 0.00 in0.0 mm
01:05 PM 52.4°F11.3°C 49.6°F9.8°C 90% 21.0 mph WSW33.8 kmh WSW 33.0 mph53.1 kmh 29.83 in1010.2 mb 0.00 in0.0 mm 0.00 in0.0 mm 0.00 in0.0 mm
01:04 PM 52.4°F11.3°C 49.6°F9.8°C 90% 15.0 mph WSW24.1 kmh WSW 27.0 mph43.5 kmh 29.84 in1010.5 mb 0.00 in0.0 mm 0.00 in0.0 mm 0.00 in0.0 mm
01:03 PM 52.4°F11.3°C 49.8°F9.9°C 91% 13.0 mph SW20.9 kmh SW 21.0 mph33.8 kmh 29.84 in1010.5 mb 0.00 in0.0 mm 0.00 in0.0 mm 0.00 in0.0 mm
01:02 PM 52.3°F11.3°C 49.5°F9.7°C 90% 19.0 mph SW30.6 kmh SW 28.0 mph45.1 kmh 29.84 in1010.5 mb 0.00 in0.0 mm 0.00 in0.0 mm 0.00 in0.0 mm
01:01 PM 52.3°F11.3°C 49.8°F9.9°C 91% 20.0 mph WSW32.2 kmh WSW 31.0 mph49.9 kmh 29.84 in1010.5 mb 0.00 in0.0 mm 0.00 in0.0 mm 0.00 in0.0 mm
01:00 PM 52.3°F11.3°C 49.8°F9.9°C 91% 17.0 mph SW27.4 kmh SW 32.0 mph51.5 kmh 29.84 in1010.5 mb 0.00 in0.0 mm 0.00 in0.0 mm 0.00 in0.0 mm
12:59 PM 52.3°F11.3°C 49.8°F9.9°C 91% 13.0 mph WSW20.9 kmh WSW 23.0 mph37.0 kmh 29.84 in1010.5 mb 0.00 in0.0 mm 0.00 in0.0 mm 0.00 in0.0 mm
12:58 PM 52.3°F11.3°C 49.8°F9.9°C 91% 14.0 mph WSW22.5 kmh WSW 21.0 mph33.8 kmh 29.84 in1010.5 mb 0.00 in0.0 mm 0.00 in0.0 mm 0.00 in0.0 mm
12:57 PM 52.2°F11.2°C 49.7°F9.8°C 91% 16.0 mph WSW25.7 kmh WSW 28.0 mph45.1 kmh 29.84 in1010.5 mb 0.00 in0.0 mm 0.00 in0.0 mm 0.00 in0.0 mm
12:56 PM 52.2°F11.2°C 49.7°F9.8°C 91% 14.0 mph WSW22.5 kmh WSW 27.0 mph43.5 kmh 29.84 in1010.5 mb 0.00 in0.0 mm 0.00 in0.0 mm 0.00 in0.0 mm
12:55 PM 52.2°F11.2°C 49.7°F9.8°C 91% 17.0 mph WSW27.4 kmh WSW 25.0 mph40.2 kmh 29.84 in1010.5 mb 0.00 in0.0 mm 0.00 in0.0 mm 0.00 in0.0 mm
12:54 PM 52.2°F11.2°C 49.7°F9.8°C 91% 19.0 mph SW30.6 kmh SW 30.0 mph48.3 kmh 29.84 in1010.5 mb 0.00 in0.0 mm 0.00 in0.0 mm 0.00 in0.0 mm
12:53 PM 52.2°F11.2°C 49.7°F9.8°C 91% 16.0 mph W25.7 kmh W 27.0 mph43.5 kmh 29.84 in1010.5 mb 0.00 in0.0 mm 0.00 in0.0 mm 0.00 in0.0 mm
12:52 PM 52.2°F11.2°C 49.7°F9.8°C 91% 19.0 mph SW30.6 kmh SW 26.0 mph41.8 kmh 29.84 in1010.5 mb 0.00 in0.0 mm 0.00 in0.0 mm 0.00 in0.0 mm
12:51 PM 52.3°F11.3°C 49.8°F9.9°C 91% 14.0 mph SW22.5 kmh SW 30.0 mph48.3 kmh 29.84 in1010.5 mb 0.00 in0.0 mm 0.00 in0.0 mm 0.00 in0.0 mm
12:50 PM 52.3°F11.3°C 49.8°F9.9°C 91% 16.0 mph WSW25.7 kmh WSW 25.0 mph40.2 kmh 29.84 in1010.5 mb 0.00 in0.0 mm 0.00 in0.0 mm 0.00 in0.0 mm
12:49 PM 52.3°F11.3°C 50.0°F10.0°C 92% 18.0 mph WSW29.0 kmh WSW 32.0 mph51.5 kmh 29.84 in1010.5 mb 0.00 in0.0 mm 0.00 in0.0 mm 0.00 in0.0 mm
12:48 PM 52.3°F11.3°C 50.0°F10.0°C 92% 15.0 mph WSW24.1 kmh WSW 24.0 mph38.6 kmh 29.84 in1010.5 mb 0.00 in0.0 mm 0.00 in0.0 mm 0.00 in0.0 mm
12:47 PM 52.2°F11.2°C 49.9°F9.9°C 92% 14.0 mph WSW22.5 kmh WSW 24.0 mph38.6 kmh 29.84 in1010.5 mb 0.00 in0.0 mm 0.00 in0.0 mm 0.00 in0.0 mm
12:46 PM 52.1°F11.2°C 49.8°F9.9°C 92% 13.0 mph WSW20.9 kmh WSW 24.0 mph38.6 kmh 29.84 in1010.5 mb 0.00 in0.0 mm 0.00 in0.0 mm 0.00 in0.0 mm
12:45 PM 52.1°F11.2°C 49.8°F9.9°C 92% 21.0 mph SW33.8 kmh SW 34.0 mph54.7 kmh 29.85 in1010.8 mb 0.00 in0.0 mm 0.00 in0.0 mm 0.00 in0.0 mm
12:44 PM 52.1°F11.2°C 49.8°F9.9°C 92% 19.0 mph SW30.6 kmh SW 29.0 mph46.7 kmh 29.85 in1010.8 mb 0.00 in0.0 mm 0.00 in0.0 mm 0.00 in0.0 mm
12:43 PM 52.0°F11.1°C 49.7°F9.8°C 92% 17.0 mph WSW27.4 kmh WSW 31.0 mph49.9 kmh 29.85 in1010.8 mb 0.00 in0.0 mm 0.00 in0.0 mm 0.00 in0.0 mm
12:42 PM 52.0°F11.1°C 50.0°F10.0°C 93% 14.0 mph WSW22.5 kmh WSW 23.0 mph37.0 kmh 29.85 in1010.8 mb 0.00 in0.0 mm 0.00 in0.0 mm 0.00 in0.0 mm
12:41 PM 51.9°F11.1°C 49.9°F9.9°C 93% 17.0 mph SW27.4 kmh SW 31.0 mph49.9 kmh 29.84 in1010.5 mb 0.00 in0.0 mm 0.00 in0.0 mm 0.00 in0.0 mm
12:40 PM 51.9°F11.1°C 49.9°F9.9°C 93% 19.0 mph SW30.6 kmh SW 35.0 mph56.3 kmh 29.85 in1010.8 mb 0.00 in0.0 mm 0.00 in0.0 mm 0.00 in0.0 mm
12:39 PM 51.9°F11.1°C 49.9°F9.9°C 93% 18.0 mph WSW29.0 kmh WSW 23.0 mph37.0 kmh 29.86 in1011.2 mb 0.00 in0.0 mm 0.00 in0.0 mm 0.00 in0.0 mm
12:38 PM 51.8°F11.0°C 49.8°F9.9°C 93% 14.0 mph W22.5 kmh W 22.0 mph35.4 kmh 29.86 in1011.2 mb 0.00 in0.0 mm 0.00 in0.0 mm 0.00 in0.0 mm
12:37 PM 51.8°F11.0°C 50.1°F10.1°C 94% 18.0 mph WSW29.0 kmh WSW 25.0 mph40.2 kmh 29.86 in1011.2 mb 0.00 in0.0 mm 0.00 in0.0 mm 0.00 in0.0 mm
12:36 PM 51.8°F11.0°C 50.1°F10.1°C 94% 18.0 mph WSW29.0 kmh WSW 32.0 mph51.5 kmh 29.85 in1010.8 mb 0.00 in0.0 mm 0.00 in0.0 mm 0.00 in0.0 mm
12:35 PM 51.7°F10.9°C 50.0°F10.0°C 94% 16.0 mph WSW25.7 kmh WSW 25.0 mph40.2 kmh 29.86 in1011.2 mb 0.00 in0.0 mm 0.00 in0.0 mm 0.00 in0.0 mm
12:34 PM 51.7°F10.9°C 50.0°F10.0°C 94% 16.0 mph W25.7 kmh W 29.0 mph46.7 kmh 29.86 in1011.2 mb 0.00 in0.0 mm 0.00 in0.0 mm 0.00 in0.0 mm
12:33 PM 51.6°F10.9°C 49.9°F9.9°C 94% 15.0 mph WSW24.1 kmh WSW 20.0 mph32.2 kmh 29.86 in1011.2 mb 0.00 in0.0 mm 0.00 in0.0 mm 0.00 in0.0 mm
12:32 PM 51.5°F10.8°C 49.8°F9.9°C 94% 13.0 mph WSW20.9 kmh WSW 23.0 mph37.0 kmh 29.87 in1011.5 mb 0.00 in0.0 mm 0.00 in0.0 mm 0.00 in0.0 mm
12:31 PM 51.5°F10.8°C 49.8°F9.9°C 94% 15.0 mph SW24.1 kmh SW 25.0 mph40.2 kmh 29.87 in1011.5 mb 0.00 in0.0 mm 0.00 in0.0 mm 0.00 in0.0 mm
12:30 PM 51.4°F10.8°C 49.7°F9.8°C 94% 17.0 mph WSW27.4 kmh WSW 28.0 mph45.1 kmh 29.87 in1011.5 mb 0.00 in0.0 mm 0.00 in0.0 mm 0.00 in0.0 mm
12:29 PM 51.4°F10.8°C 49.7°F9.8°C 94% 13.0 mph WSW20.9 kmh WSW 18.0 mph29.0 kmh 29.87 in1011.5 mb 0.00 in0.0 mm 0.00 in0.0 mm 0.00 in0.0 mm
12:28 PM 51.4°F10.8°C 49.7°F9.8°C 94% 18.0 mph WSW29.0 kmh WSW 29.0 mph46.7 kmh 29.87 in1011.5 mb 0.00 in0.0 mm 0.00 in0.0 mm 0.00 in0.0 mm
12:27 PM 51.4°F10.8°C 50.0°F10.0°C 95% 16.0 mph W25.7 kmh W 24.0 mph38.6 kmh 29.87 in1011.5 mb 0.00 in0.0 mm 0.00 in0.0 mm 0.00 in0.0 mm
12:26 PM 51.4°F10.8°C 49.7°F9.8°C 94% 13.0 mph WSW20.9 kmh WSW 21.0 mph33.8 kmh 29.87 in1011.5 mb 0.00 in0.0 mm 0.00 in0.0 mm 0.00 in0.0 mm
12:25 PM 51.4°F10.8°C 50.0°F10.0°C 95% 14.0 mph W22.5 kmh W 20.0 mph32.2 kmh 29.87 in1011.5 mb 0.00 in0.0 mm 0.00 in0.0 mm 0.00 in0.0 mm
12:24 PM 51.3°F10.7°C 49.6°F9.8°C 94% 14.0 mph WSW22.5 kmh WSW 21.0 mph33.8 kmh 29.87 in1011.5 mb 0.00 in0.0 mm 0.00 in0.0 mm 0.00 in0.0 mm
12:23 PM 51.3°F10.7°C 49.6°F9.8°C 94% 15.0 mph WSW24.1 kmh WSW 27.0 mph43.5 kmh 29.88 in1011.9 mb 0.00 in0.0 mm 0.00 in0.0 mm 0.00 in0.0 mm
12:22 PM 51.3°F10.7°C 49.6°F9.8°C 94% 16.0 mph WSW25.7 kmh WSW 25.0 mph40.2 kmh 29.88 in1011.9 mb 0.00 in0.0 mm 0.00 in0.0 mm 0.00 in0.0 mm
12:21 PM 51.3°F10.7°C 49.6°F9.8°C 94% 14.0 mph WSW22.5 kmh WSW 34.0 mph54.7 kmh 29.87 in1011.5 mb 0.00 in0.0 mm 0.00 in0.0 mm 0.00 in0.0 mm
12:20 PM 51.3°F10.7°C 49.6°F9.8°C 94% 16.0 mph WSW25.7 kmh WSW 34.0 mph54.7 kmh 29.87 in1011.5 mb 0.00 in0.0 mm 0.00 in0.0 mm 0.00 in0.0 mm
12:19 PM 51.4°F10.8°C 49.7°F9.8°C 94% 16.0 mph WSW25.7 kmh WSW 23.0 mph37.0 kmh 29.87 in1011.5 mb 0.00 in0.0 mm 0.00 in0.0 mm 0.00 in0.0 mm
12:18 PM 51.4°F10.8°C 49.7°F9.8°C 94% 13.0 mph SW20.9 kmh SW 21.0 mph33.8 kmh 29.88 in1011.9 mb 0.00 in0.0 mm 0.00 in0.0 mm 0.00 in0.0 mm
12:17 PM 51.4°F10.8°C 49.7°F9.8°C 94% 16.0 mph SW25.7 kmh SW 23.0 mph37.0 kmh 29.88 in1011.9 mb 0.00 in0.0 mm 0.00 in0.0 mm 0.00 in0.0 mm
12:16 PM 51.5°F10.8°C 49.8°F9.9°C 94% 16.0 mph SW25.7 kmh SW 25.0 mph40.2 kmh 29.88 in1011.9 mb 0.00 in0.0 mm 0.00 in0.0 mm 0.00 in0.0 mm
12:15 PM 51.5°F10.8°C 49.8°F9.9°C 94% 15.0 mph SW24.1 kmh SW 28.0 mph45.1 kmh 29.88 in1011.9 mb 0.00 in0.0 mm 0.00 in0.0 mm 0.00 in0.0 mm
12:14 PM 51.5°F10.8°C 49.8°F9.9°C 94% 9.0 mph WSW14.5 kmh WSW 15.0 mph24.1 kmh 29.88 in1011.9 mb 0.00 in0.0 mm 0.00 in0.0 mm 0.00 in0.0 mm
12:13 PM 51.5°F10.8°C 49.8°F9.9°C 94% 9.0 mph WSW14.5 kmh WSW 17.0 mph27.4 kmh 29.88 in1011.9 mb 0.00 in0.0 mm 0.00 in0.0 mm 0.00 in0.0 mm
12:12 PM 51.5°F10.8°C 49.8°F9.9°C 94% 15.0 mph W24.1 kmh W 23.0 mph37.0 kmh 29.88 in1011.9 mb 0.00 in0.0 mm 0.00 in0.0 mm 0.00 in0.0 mm
12:11 PM 51.5°F10.8°C 49.8°F9.9°C 94% 17.0 mph WSW27.4 kmh WSW 27.0 mph43.5 kmh 29.88 in1011.9 mb 0.00 in0.0 mm 0.00 in0.0 mm 0.00 in0.0 mm
12:10 PM 51.5°F10.8°C 49.8°F9.9°C 94% 12.0 mph WSW19.3 kmh WSW 24.0 mph38.6 kmh 29.87 in1011.5 mb 0.00 in0.0 mm 0.00 in0.0 mm 0.00 in0.0 mm
12:09 PM 51.5°F10.8°C 49.8°F9.9°C 94% 14.0 mph SW22.5 kmh SW 23.0 mph37.0 kmh 29.88 in1011.9 mb 0.00 in0.0 mm 0.00 in0.0 mm 0.00 in0.0 mm
12:08 PM 51.5°F10.8°C 49.8°F9.9°C 94% 11.0 mph SW17.7 kmh SW 18.0 mph29.0 kmh 29.88 in1011.9 mb 0.00 in0.0 mm 0.00 in0.0 mm 0.00 in0.0 mm
12:07 PM 51.5°F10.8°C 49.8°F9.9°C 94% 11.0 mph WSW17.7 kmh WSW 17.0 mph27.4 kmh 29.87 in1011.5 mb 0.00 in0.0 mm 0.00 in0.0 mm 0.00 in0.0 mm
12:06 PM 51.5°F10.8°C 49.8°F9.9°C 94% 14.0 mph SW22.5 kmh SW 27.0 mph43.5 kmh 29.88 in1011.9 mb 0.00 in0.0 mm 0.00 in0.0 mm 0.00 in0.0 mm
12:05 PM 51.5°F10.8°C 49.8°F9.9°C 94% 11.0 mph WSW17.7 kmh WSW 21.0 mph33.8 kmh 29.87 in1011.5 mb 0.00 in0.0 mm 0.00 in0.0 mm 0.00 in0.0 mm
12:04 PM 51.5°F10.8°C 49.8°F9.9°C 94% 11.0 mph WSW17.7 kmh WSW 15.0 mph24.1 kmh 29.88 in1011.9 mb 0.00 in0.0 mm 0.00 in0.0 mm 0.00 in0.0 mm
12:03 PM 51.5°F10.8°C 50.1°F10.1°C 95% 16.0 mph SW25.7 kmh SW 24.0 mph38.6 kmh 29.87 in1011.5 mb 0.00 in0.0 mm 0.00 in0.0 mm 0.00 in0.0 mm
12:02 PM 51.5°F10.8°C 50.1°F10.1°C 95% 18.0 mph SW29.0 kmh SW 28.0 mph45.1 kmh 29.88 in1011.9 mb 0.00 in0.0 mm 0.00 in0.0 mm 0.00 in0.0 mm
12:01 PM 51.4°F10.8°C 50.0°F10.0°C 95% 13.0 mph WSW20.9 kmh WSW 22.0 mph35.4 kmh 29.88 in1011.9 mb 0.00 in0.0 mm 0.00 in0.0 mm 0.00 in0.0 mm
12:00 PM 51.4°F10.8°C 50.0°F10.0°C 95% 14.0 mph SW22.5 kmh SW 23.0 mph37.0 kmh 29.88 in1011.9 mb 0.00 in0.0 mm 0.00 in0.0 mm 0.00 in0.0 mm
11:59 AM 51.4°F10.8°C 50.0°F10.0°C 95% 13.0 mph WSW20.9 kmh WSW 18.0 mph29.0 kmh 29.88 in1011.9 mb 0.00 in0.0 mm 0.00 in0.0 mm 0.00 in0.0 mm
11:58 AM 51.4°F10.8°C 50.0°F10.0°C 95% 11.0 mph WSW17.7 kmh WSW 20.0 mph32.2 kmh 29.88 in1011.9 mb 0.00 in0.0 mm 0.00 in0.0 mm 0.00 in0.0 mm
11:57 AM 51.3°F10.7°C 49.9°F9.9°C 95% 12.0 mph WSW19.3 kmh WSW 17.0 mph27.4 kmh 29.88 in1011.9 mb 0.00 in0.0 mm 0.00 in0.0 mm 0.00 in0.0 mm
11:56 AM 51.3°F10.7°C 49.9°F9.9°C 95% 13.0 mph SW20.9 kmh SW 20.0 mph32.2 kmh 29.88 in1011.9 mb 0.00 in0.0 mm 0.00 in0.0 mm 0.00 in0.0 mm
11:55 AM 51.3°F10.7°C 49.9°F9.9°C 95% 12.0 mph WSW19.3 kmh WSW 21.0 mph33.8 kmh 29.88 in1011.9 mb 0.00 in0.0 mm 0.00 in0.0 mm 0.00 in0.0 mm
11:54 AM 51.3°F10.7°C 49.9°F9.9°C 95% 17.0 mph SW27.4 kmh SW 24.0 mph38.6 kmh 29.89 in1012.2 mb 0.00 in0.0 mm 0.00 in0.0 mm 0.00 in0.0 mm
11:53 AM 51.2°F10.7°C 49.8°F9.9°C 95% 12.0 mph WSW19.3 kmh WSW 19.0 mph30.6 kmh 29.88 in1011.9 mb 0.00 in0.0 mm 0.00 in0.0 mm 0.00 in0.0 mm
11:52 AM 51.2°F10.7°C 49.8°F9.9°C 95% 11.0 mph WSW17.7 kmh WSW 17.0 mph27.4 kmh 29.88 in1011.9 mb 0.00 in0.0 mm 0.00 in0.0 mm 0.00 in0.0 mm
11:51 AM 51.2°F10.7°C 49.8°F9.9°C 95% 9.0 mph WSW14.5 kmh WSW 15.0 mph24.1 kmh 29.88 in1011.9 mb 0.00 in0.0 mm 0.00 in0.0 mm 0.00 in0.0 mm
11:50 AM 51.2°F10.7°C 49.8°F9.9°C 95% 13.0 mph SW20.9 kmh SW 22.0 mph35.4 kmh 29.89 in1012.2 mb 0.00 in0.0 mm 0.00 in0.0 mm 0.00 in0.0 mm
11:49 AM 51.1°F10.6°C 49.7°F9.8°C 95% 14.0 mph SW22.5 kmh SW 25.0 mph40.2 kmh 29.88 in1011.9 mb 0.00 in0.0 mm 0.00 in0.0 mm 0.00 in0.0 mm
11:48 AM 51.1°F10.6°C 49.7°F9.8°C 95% 14.0 mph WSW22.5 kmh WSW 21.0 mph33.8 kmh 29.89 in1012.2 mb 0.00 in0.0 mm 0.00 in0.0 mm 0.00 in0.0 mm
11:47 AM 51.1°F10.6°C 49.7°F9.8°C 95% 13.0 mph WSW20.9 kmh WSW 23.0 mph37.0 kmh 29.89 in1012.2 mb 0.00 in0.0 mm 0.00 in0.0 mm 0.00 in0.0 mm
11:46 AM 51.0°F10.6°C 49.6°F9.8°C 95% 19.0 mph SW30.6 kmh SW 26.0 mph41.8 kmh 29.89 in1012.2 mb 0.00 in0.0 mm 0.00 in0.0 mm 0.00 in0.0 mm
11:45 AM 51.0°F10.6°C 49.6°F9.8°C 95% 12.0 mph WSW19.3 kmh WSW 20.0 mph32.2 kmh 29.88 in1011.9 mb 0.00 in0.0 mm 0.00 in0.0 mm 0.00 in0.0 mm
11:44 AM 51.0°F10.6°C 49.6°F9.8°C 95% 15.0 mph WSW24.1 kmh WSW 26.0 mph41.8 kmh 29.89 in1012.2 mb 0.00 in0.0 mm 0.00 in0.0 mm 0.00 in0.0 mm
11:43 AM 51.0°F10.6°C 49.6°F9.8°C 95% 10.0 mph WSW16.1 kmh WSW 16.0 mph25.7 kmh 29.89 in1012.2 mb 0.00 in0.0 mm 0.00 in0.0 mm 0.00 in0.0 mm
11:42 AM 51.0°F10.6°C 49.6°F9.8°C 95% 14.0 mph WSW22.5 kmh WSW 20.0 mph32.2 kmh 29.89 in1012.2 mb 0.00 in0.0 mm 0.00 in0.0 mm 0.00 in0.0 mm
11:41 AM 51.0°F10.6°C 49.6°F9.8°C 95% 13.0 mph WSW20.9 kmh WSW 20.0 mph32.2 kmh 29.89 in1012.2 mb 0.00 in0.0 mm 0.00 in0.0 mm 0.00 in0.0 mm
11:40 AM 50.9°F10.5°C 49.5°F9.7°C 95% 13.0 mph WSW20.9 kmh WSW 20.0 mph32.2 kmh 29.89 in1012.2 mb 0.00 in0.0 mm 0.00 in0.0 mm 0.00 in0.0 mm
11:39 AM 50.9°F10.5°C 49.5°F9.7°C 95% 14.0 mph SW22.5 kmh SW 26.0 mph41.8 kmh 29.89 in1012.2 mb 0.00 in0.0 mm 0.00 in0.0 mm 0.00 in0.0 mm
11:38 AM 50.9°F10.5°C 49.5°F9.7°C 95% 10.0 mph WSW16.1 kmh WSW 15.0 mph24.1 kmh 29.89 in1012.2 mb 0.00 in0.0 mm 0.00 in0.0 mm 0.00 in0.0 mm
11:37 AM 50.9°F10.5°C 49.5°F9.7°C 95% 12.0 mph WSW19.3 kmh WSW 22.0 mph35.4 kmh 29.89 in1012.2 mb 0.00 in0.0 mm 0.00 in0.0 mm 0.00 in0.0 mm
11:36 AM 50.9°F10.5°C 49.5°F9.7°C 95% 15.0 mph WSW24.1 kmh WSW 21.0 mph33.8 kmh 29.89 in1012.2 mb 0.00 in0.0 mm 0.00 in0.0 mm 0.00 in0.0 mm
11:35 AM 50.9°F10.5°C 49.5°F9.7°C 95% 13.0 mph WSW20.9 kmh WSW 23.0 mph37.0 kmh 29.89 in1012.2 mb 0.00 in0.0 mm 0.00 in0.0 mm 0.00 in0.0 mm
11:34 AM 50.9°F10.5°C 49.5°F9.7°C 95% 12.0 mph SW19.3 kmh SW 24.0 mph38.6 kmh 29.89 in1012.2 mb 0.00 in0.0 mm 0.00 in0.0 mm 0.00 in0.0 mm
11:33 AM 50.9°F10.5°C 49.5°F9.7°C 95% 14.0 mph W22.5 kmh W 20.0 mph32.2 kmh 29.89 in1012.2 mb 0.00 in0.0 mm 0.00 in0.0 mm 0.00 in0.0 mm
11:32 AM 50.9°F10.5°C 49.5°F9.7°C 95% 10.0 mph WSW16.1 kmh WSW 14.0 mph22.5 kmh 29.90 in1012.5 mb 0.00 in0.0 mm 0.00 in0.0 mm 0.00 in0.0 mm
11:31 AM 50.9°F10.5°C 49.5°F9.7°C 95% 11.0 mph SW17.7 kmh SW 18.0 mph29.0 kmh 29.90 in1012.5 mb 0.00 in0.0 mm 0.00 in0.0 mm 0.00 in0.0 mm
11:30 AM 50.9°F10.5°C 49.5°F9.7°C 95% 10.0 mph WSW16.1 kmh WSW 14.0 mph22.5 kmh 29.89 in1012.2 mb 0.00 in0.0 mm 0.00 in0.0 mm 0.00 in0.0 mm
11:29 AM 50.9°F10.5°C 49.5°F9.7°C 95% 8.0 mph W12.9 kmh W 15.0 mph24.1 kmh 29.89 in1012.2 mb 0.00 in0.0 mm 0.00 in0.0 mm 0.00 in0.0 mm
11:28 AM 50.9°F10.5°C 49.5°F9.7°C 95% 10.0 mph W16.1 kmh W 17.0 mph27.4 kmh 29.89 in1012.2 mb 0.00 in0.0 mm 0.00 in0.0 mm 0.00 in0.0 mm
11:27 AM 50.8°F10.4°C 49.4°F9.7°C 95% 13.0 mph SW20.9 kmh SW 22.0 mph35.4 kmh 29.90 in1012.5 mb 0.00 in0.0 mm 0.00 in0.0 mm 0.00 in0.0 mm
11:26 AM 50.8°F10.4°C 49.4°F9.7°C 95% 13.0 mph WSW20.9 kmh WSW 20.0 mph32.2 kmh 29.89 in1012.2 mb 0.00 in0.0 mm 0.00 in0.0 mm 0.00 in0.0 mm
11:25 AM 50.8°F10.4°C 49.4°F9.7°C 95% 12.0 mph WSW19.3 kmh WSW 16.0 mph25.7 kmh 29.90 in1012.5 mb 0.00 in0.0 mm 0.00 in0.0 mm 0.00 in0.0 mm
11:24 AM 50.8°F10.4°C 49.4°F9.7°C 95% 11.0 mph W17.7 kmh W 18.0 mph29.0 kmh 29.90 in1012.5 mb 0.00 in0.0 mm 0.00 in0.0 mm 0.00 in0.0 mm
11:23 AM 50.8°F10.4°C 49.4°F9.7°C 95% 12.0 mph SW19.3 kmh SW 20.0 mph32.2 kmh 29.90 in1012.5 mb 0.00 in0.0 mm 0.00 in0.0 mm 0.00 in0.0 mm
11:22 AM 50.8°F10.4°C 49.4°F9.7°C 95% 12.0 mph WSW19.3 kmh WSW 22.0 mph35.4 kmh 29.89 in1012.2 mb 0.00 in0.0 mm 0.00 in0.0 mm 0.00 in0.0 mm
11:21 AM 50.7°F10.4°C 49.3°F9.6°C 95% 13.0 mph WSW20.9 kmh WSW 21.0 mph33.8 kmh 29.90 in1012.5 mb 0.00 in0.0 mm 0.00 in0.0 mm 0.00 in0.0 mm
11:20 AM 50.7°F10.4°C 49.3°F9.6°C 95% 13.0 mph WSW20.9 kmh WSW 17.0 mph27.4 kmh 29.89 in1012.2 mb 0.00 in0.0 mm 0.00 in0.0 mm 0.00 in0.0 mm
11:19 AM 50.7°F10.4°C 49.3°F9.6°C 95% 12.0 mph WSW19.3 kmh WSW 24.0 mph38.6 kmh 29.89 in1012.2 mb 0.00 in0.0 mm 0.00 in0.0 mm 0.00 in0.0 mm
11:18 AM 50.6°F10.3°C 49.2°F9.6°C 95% 13.0 mph WSW20.9 kmh WSW 24.0 mph38.6 kmh 29.89 in1012.2 mb 0.00 in0.0 mm 0.00 in0.0 mm 0.00 in0.0 mm
11:17 AM 50.6°F10.3°C 49.2°F9.6°C 95% 12.0 mph WSW19.3 kmh WSW 24.0 mph38.6 kmh 29.90 in1012.5 mb 0.00 in0.0 mm 0.00 in0.0 mm 0.00 in0.0 mm
11:16 AM 50.6°F10.3°C 49.5°F9.7°C 96% 13.0 mph WSW20.9 kmh WSW 19.0 mph30.6 kmh 29.90 in1012.5 mb 0.00 in0.0 mm 0.00 in0.0 mm 0.00 in0.0 mm
11:15 AM 50.6°F10.3°C 49.5°F9.7°C 96% 7.0 mph WSW11.3 kmh WSW 12.0 mph19.3 kmh 29.90 in1012.5 mb 0.00 in0.0 mm 0.00 in0.0 mm 0.00 in0.0 mm
11:14 AM 50.6°F10.3°C 49.5°F9.7°C 96% 10.0 mph WSW16.1 kmh WSW 12.0 mph19.3 kmh 29.90 in1012.5 mb 0.00 in0.0 mm 0.00 in0.0 mm 0.00 in0.0 mm
11:10 AM 50.5°F10.3°C 49.4°F9.7°C 96% 11.0 mph WSW17.7 kmh WSW 28.0 mph45.1 kmh 29.90 in1012.5 mb 0.00 in0.0 mm 0.00 in0.0 mm 0.00 in0.0 mm
11:05 AM 50.5°F10.3°C 49.4°F9.7°C 96% 12.0 mph WSW19.3 kmh WSW 29.0 mph46.7 kmh 29.90 in1012.5 mb 0.00 in0.0 mm 0.00 in0.0 mm 0.00 in0.0 mm
11:00 AM 50.5°F10.3°C 49.4°F9.7°C 96% 10.0 mph WSW16.1 kmh WSW 21.0 mph33.8 kmh 29.91 in1012.9 mb 0.00 in0.0 mm 0.00 in0.0 mm 0.00 in0.0 mm
10:55 AM 50.5°F10.3°C 49.4°F9.7°C 96% 13.0 mph SW20.9 kmh SW 22.0 mph35.4 kmh 29.90 in1012.5 mb 0.00 in0.0 mm 0.00 in0.0 mm 0.00 in0.0 mm
10:50 AM 50.4°F10.2°C 49.3°F9.6°C 96% 13.0 mph WSW20.9 kmh WSW 25.0 mph40.2 kmh 29.90 in1012.5 mb 0.00 in0.0 mm 0.00 in0.0 mm 0.00 in0.0 mm